Data for 12/16/2011

Time Sea-Level Adjusted Pressure Absolute Pressure Temperature Relative Humidity Dew Point Precipitation   
(mb) (inHg) (mb) (inHg) (C) (F) (%) (C) (F) (mm) (in)
00:01 1027 30.33 856 25.28 -2.9 26.8 79 -6.1 21 -91.7 -3.61
00:02 1027 30.33 856 25.28 -2.9 26.7 79 -6.1 21 -91.7 -3.61
00:03 1027 30.33 856 25.28 -2.9 26.8 79 -6.1 21 -91.7 -3.61
00:04 1027 30.33 856 25.28 -2.9 26.8 78 -6.1 20.9 -91.7 -3.61
00:05 1027 30.33 856 25.28 -2.9 26.7 78 -6.2 20.8 -91.7 -3.61
00:06 1027 30.33 856 25.28 -2.9 26.8 78 -6.2 20.9 -91.7 -3.61
00:07 1027 30.33 856 25.28 -2.9 26.8 78 -6.2 20.9 -91.7 -3.61
00:08 1027 30.33 856 25.28 -2.9 26.9 78 -6.2 20.9 -91.7 -3.61
00:09 1027 30.33 856 25.28 -2.8 26.9 78 -6.1 20.9 -91.7 -3.61
00:10 1027 30.33 856 25.28 -2.8 26.9 78 -6.1 21 -91.8 -3.614
00:11 1027 30.33 856 25.28 -2.8 26.9 78 -6.1 20.9 -91.8 -3.614
00:12 1027 30.33 856 25.28 -2.9 26.9 78 -6.2 20.9 -91.8 -3.614
00:13 1027 30.33 856 25.28 -2.9 26.8 78 -6.2 20.9 -91.8 -3.614
00:14 1027 30.33 856 25.28 -2.9 26.8 78 -6.2 20.9 -91.8 -3.614
00:15 1027 30.33 856 25.28 -2.9 26.8 78 -6.3 20.7 -91.8 -3.614
00:16 1027 30.33 856 25.28 -2.9 26.8 78 -6.2 20.8 -91.8 -3.614
00:17 1027 30.33 856 25.28 -2.8 26.9 78 -6.2 20.9 -91.8 -3.614
00:18 1027 30.33 856 25.28 -2.8 26.9 78 -6.2 20.9 -91.8 -3.614
00:19 1027 30.33 856 25.28 -2.8 26.9 78 -6.2 20.8 -91.8 -3.614
00:20 1027 30.33 856 25.28 -2.8 26.9 78 -6.2 20.9 -91.8 -3.614
00:21 1027 30.33 856 25.28 -2.8 26.9 77 -6.2 20.8 -91.8 -3.614
00:22 1027 30.33 856 25.28 -2.8 26.9 77 -6.3 20.7 -91.8 -3.614
00:23 1027 30.33 856 25.28 -2.8 26.9 78 -6.2 20.9 -91.8 -3.614
00:24 1027 30.33 856 25.28 -2.8 26.9 78 -6.2 20.8 -91.8 -3.614
00:25 1027 30.33 856 25.28 -2.8 26.9 77 -6.3 20.7 -91.8 -3.614
00:26 1027 30.33 856 25.28 -2.8 27 77 -6.3 20.7 -91.8 -3.614
00:27 1027 30.33 856 25.28 -2.8 26.9 77 -6.2 20.8 -91.8 -3.614
00:28 1027 30.33 856 25.28 -2.8 27 77 -6.3 20.7 -91.8 -3.614
00:29 1027 30.33 856 25.28 -2.8 26.9 77 -6.3 20.6 -91.8 -3.614
00:30 1027 30.33 856 25.28 -2.8 27 77 -6.3 20.6 -91.8 -3.614
00:31 1027 30.33 856 25.28 -2.8 27 77 -6.4 20.6 -91.8 -3.614
00:32 1027 30.33 856 25.28 -2.8 27 77 -6.3 20.6 -91.8 -3.614
00:33 1027 30.33 856 25.28 -2.7 27.1 76 -6.3 20.6 -91.8 -3.614
00:34 1027 30.33 856 25.28 -2.7 27.1 77 -6.3 20.6 -91.8 -3.614
00:35 1027 30.33 856 25.28 -2.7 27.1 77 -6.3 20.7 -91.8 -3.614
00:36 1027 30.33 856 25.28 -2.8 27 77 -6.3 20.7 -91.8 -3.614
00:37 1027 30.33 856 25.28 -2.8 27 77 -6.3 20.6 -91.8 -3.614
00:38 1027 30.33 856 25.28 -2.8 27 76 -6.4 20.6 -91.8 -3.614
00:39 1027 30.33 856 25.28 -2.8 27 76 -6.4 20.5 -91.8 -3.614
00:40 1027 30.33 856 25.28 -2.8 27 76 -6.4 20.5 -91.8 -3.614
00:41 1027 30.33 856 25.28 -2.8 27 76 -6.4 20.5 -91.8 -3.614
00:42 1027 30.33 856 25.28 -2.7 27.1 76 -6.4 20.6 -91.8 -3.614
00:43 1027 30.33 856 25.28 -2.8 27 76 -6.4 20.5 -91.8 -3.614
00:44 1027 30.33 856 25.28 -2.8 27 76 -6.4 20.5 -91.8 -3.614
00:45 1027 30.33 856 25.28 -2.8 27 76 -6.4 20.5 -91.8 -3.614
00:46 1027 30.33 856 25.28 -2.8 27 76 -6.4 20.6 -91.8 -3.614
00:47 1027 30.33 856 25.28 -2.8 27 76 -6.4 20.4 -91.8 -3.614
00:48 1027 30.33 856 25.28 -2.8 27 76 -6.5 20.4 -91.8 -3.614
00:49 1027 30.33 856 25.28 -2.7 27.1 75 -6.5 20.3 -91.8 -3.614
00:50 1027 30.33 856 25.28 -2.7 27.1 75 -6.6 20.2 -91.8 -3.614
00:51 1027 30.33 856 25.28 -2.6 27.2 75 -6.5 20.3 -91.8 -3.614
00:52 1027 30.33 856 25.28 -2.6 27.2 75 -6.5 20.3 -91.8 -3.614
00:53 1027 30.33 856 25.28 -2.6 27.3 75 -6.5 20.3 -91.8 -3.614
00:54 1027 30.33 856 25.28 -2.6 27.2 75 -6.5 20.3 -91.9 -3.618
00:55 1027 30.33 856 25.28 -2.6 27.3 75 -6.5 20.4 -91.9 -3.618
00:56 1027 30.33 856 25.28 -2.6 27.3 75 -6.4 20.5 -91.9 -3.618
00:57 1027 30.33 856 25.28 -2.7 27.2 75 -6.4 20.4 -91.9 -3.618
00:58 1027 30.33 856 25.28 -2.7 27.2 76 -6.4 20.4 -91.9 -3.618
00:59 1027 30.33 856 25.28 -2.7 27.1 76 -6.5 20.4 -91.9 -3.618
01:00 1027 30.33 856 25.28 -2.8 27 76 -6.4 20.6 -91.9 -3.618
01:01 1027 30.33 856 25.28 -2.8 26.9 77 -6.4 20.5 -91.9 -3.618
01:02 1027 30.33 856 25.28 -2.9 26.8 77 -6.5 20.4 -91.9 -3.618
01:03 1027 30.33 856 25.28 -2.9 26.7 77 -6.5 20.3 -91.9 -3.618
01:04 1027 30.33 856 25.28 -3 26.7 76 -6.6 20.2 -91.9 -3.618
01:05 1027 30.33 856 25.28 -3 26.7 77 -6.5 20.3 -91.9 -3.618
01:06 1027 30.33 856 25.28 -3 26.6 77 -6.5 20.3 -91.9 -3.618
01:07 1027 30.33 856 25.28 -3 26.5 77 -6.6 20.1 -91.9 -3.618
01:08 1027 30.33 856 25.28 -3.1 26.5 77 -6.6 20.1 -91.9 -3.618
01:09 1027 30.33 856 25.28 -3.1 26.4 77 -6.6 20.1 -91.9 -3.618
01:10 1027 30.33 856 25.28 -3.1 26.4 77 -6.6 20.1 -91.9 -3.618
01:11 1027 30.33 856 25.28 -3.1 26.5 77 -6.6 20.1 -91.9 -3.618
01:12 1027 30.33 856 25.28 -3.1 26.5 76 -6.8 19.8 -91.9 -3.618
01:13 1027 30.33 856 25.28 -3 26.6 76 -6.7 19.9 -91.9 -3.618
01:14 1027 30.33 856 25.28 -2.9 26.7 75 -6.8 19.8 -91.9 -3.618
01:15 1027 30.33 856 25.28 -2.9 26.8 75 -6.8 19.7 -91.9 -3.618
01:16 1027 30.33 856 25.28 -2.8 26.9 74 -6.9 19.6 -91.9 -3.618
01:17 1027 30.33 856 25.28 -2.7 27.1 74 -6.8 19.7 -91.9 -3.618
01:18 1027 30.33 856 25.28 -2.7 27.1 73 -6.9 19.7 -91.9 -3.618
01:19 1027 30.33 856 25.28 -2.6 27.2 72 -7 19.5 -91.9 -3.618
01:20 1027 30.33 856 25.28 -2.6 27.3 72 -6.9 19.5 -91.9 -3.618
01:21 1027 30.33 856 25.28 -2.5 27.5 71 -7 19.4 -91.9 -3.618
01:22 1027 30.33 856 25.28 -2.4 27.6 71 -7 19.4 -91.9 -3.618
01:23 1027 30.33 856 25.28 -2.4 27.7 71 -7 19.5 -91.9 -3.618
01:24 1027 30.33 856 25.28 -2.4 27.6 71 -6.9 19.6 -91.9 -3.618
01:25 1027 30.33 856 25.28 -2.4 27.6 72 -6.8 19.8 -91.9 -3.618
01:26 1027 30.33 856 25.28 -2.5 27.4 73 -6.8 19.7 -91.9 -3.618
01:27 1027 30.33 856 25.28 -2.6 27.4 73 -6.8 19.8 -91.9 -3.618
01:28 1027 30.33 856 25.28 -2.7 27.2 74 -6.7 19.9 -91.9 -3.618
01:29 1027 30.33 856 25.28 -2.8 27 75 -6.7 20 -91.9 -3.618
01:30 1027 30.33 856 25.28 -2.9 26.8 76 -6.6 20.1 -91.9 -3.618
01:31 1027 30.33 856 25.28 -3 26.6 76 -6.7 20 -91.9 -3.618
01:32 1027 30.33 856 25.28 -3.1 26.5 76 -6.7 20 -91.9 -3.618
01:33 1027 30.33 856 25.28 -3.1 26.4 77 -6.7 20 -91.9 -3.618
01:34 1027 30.33 856 25.28 -3.1 26.4 77 -6.7 20 -91.9 -3.618
01:35 1027 30.33 856 25.28 -3.2 26.3 77 -6.7 19.9 -91.9 -3.618
01:36 1027 30.33 856 25.28 -3.2 26.3 76 -6.7 19.9 -91.9 -3.618
01:37 1027 30.33 856 25.28 -3.2 26.3 77 -6.7 19.9 -91.9 -3.618
01:38 1027 30.33 856 25.28 -3.2 26.3 76 -6.8 19.7 -91.9 -3.618
01:39 1027 30.33 856 25.28 -3.1 26.4 76 -6.8 19.7 -91.9 -3.618
01:40 1027 30.33 856 25.28 -3.1 26.5 75 -6.9 19.6 -91.9 -3.618
01:41 1027 30.33 856 25.28 -3 26.5 75 -6.9 19.6 -91.9 -3.618
01:42 1027 30.33 856 25.28 -3 26.7 75 -6.9 19.6 -91.9 -3.618
01:43 1027 30.33 856 25.28 -2.9 26.7 74 -6.9 19.6 -91.9 -3.618
01:44 1027 30.33 856 25.28 -2.9 26.9 74 -6.8 19.7 -91.9 -3.618
01:45 1027 30.33 856 25.28 -2.9 26.8 74 -6.9 19.6 -91.9 -3.618
01:46 1027 30.33 856 25.28 -2.9 26.8 74 -6.9 19.5 -91.9 -3.618
01:47 1027 30.33 856 25.28 -2.8 27 73 -7 19.5 -91.9 -3.618
01:48 1027 30.33 856 25.28 -2.8 27 73 -7 19.4 -91.9 -3.618
01:49 1027 30.33 856 25.28 -2.8 27 73 -7 19.4 -91.9 -3.618
01:50 1027 30.33 856 25.28 -2.9 26.8 73 -7.1 19.2 -91.9 -3.618
01:51 1027 30.33 856 25.28 -3 26.6 73 -7.2 19 -91.9 -3.618
01:52 1027 30.33 856 25.28 -3.2 26.3 73 -7.3 18.8 -91.9 -3.618
01:53 1027 30.33 856 25.28 -3.3 26.1 73 -7.4 18.7 -92 -3.622
01:54 1027 30.33 856 25.28 -3.4 26 73 -7.5 18.5 -92 -3.622
01:55 1027 30.33 856 25.28 -3.4 25.9 74 -7.5 18.6 -92 -3.622
01:56 1027 30.33 856 25.28 -3.5 25.7 74 -7.5 18.5 -92 -3.622
01:57 1027 30.33 856 25.28 -3.5 25.7 73 -7.6 18.3 -92 -3.622
01:58 1027 30.33 856 25.28 -3.3 26 72 -7.6 18.3 -92 -3.622
01:59 1027 30.33 856 25.28 -3.2 26.3 72 -7.6 18.3 -92 -3.622
02:00 1027 30.33 856 25.28 -3.1 26.5 71 -7.6 18.3 -92 -3.622
02:01 1027 30.33 856 25.28 -3.1 26.5 71 -7.6 18.4 -92 -3.622
02:02 1027 30.33 856 25.28 -3.1 26.4 71 -7.6 18.3 -92 -3.622
02:03 1027 30.33 856 25.28 -3.1 26.4 71 -7.6 18.3 -92 -3.622
02:04 1027 30.33 856 25.28 -3.1 26.4 71 -7.6 18.3 -92 -3.622
02:05 1027 30.33 856 25.28 -3.1 26.5 71 -7.6 18.2 -92 -3.622
02:06 1027 30.33 856 25.28 -2.9 26.7 70 -7.7 18.2 -92 -3.622
02:07 1027 30.33 856 25.28 -2.8 26.9 69 -7.7 18.2 -92 -3.622
02:08 1027 30.33 856 25.28 -2.7 27.1 69 -7.6 18.2 -92 -3.622
02:09 1027 30.33 856 25.28 -2.7 27.2 69 -7.6 18.3 -92 -3.622
02:10 1027 30.33 856 25.28 -2.7 27.1 69 -7.6 18.3 -92 -3.622
02:11 1027 30.33 856 25.28 -2.7 27.1 69 -7.6 18.3 -92 -3.622
02:12 1027 30.33 856 25.28 -2.8 27 69 -7.7 18.2 -92 -3.622
02:13 1027 30.33 856 25.28 -2.8 26.9 70 -7.6 18.2 -92.1 -3.626
02:14 1027 30.33 856 25.28 -2.9 26.8 70 -7.7 18.2 -92.1 -3.626
02:15 1027 30.33 856 25.28 -2.9 26.8 70 -7.7 18.2 -92.1 -3.626
02:16 1027 30.33 856 25.28 -2.9 26.7 69 -7.8 18 -92.1 -3.626
02:17 1027 30.33 856 25.28 -3.1 26.5 70 -7.9 17.8 -92.1 -3.626
02:18 1027 30.33 856 25.28 -3.2 26.2 70 -7.9 17.8 -92.1 -3.626
02:19 1027 30.33 856 25.28 -3.4 26 71 -7.9 17.7 -92.1 -3.626
02:20 1027 30.33 856 25.28 -3.5 25.7 71 -8 17.6 -92.1 -3.626
02:21 1027 30.33 856 25.28 -3.6 25.5 72 -7.9 17.8 -92.1 -3.626
02:22 1027 30.33 856 25.28 -3.7 25.3 73 -7.8 17.9 -92.1 -3.626
02:23 1027 30.33 856 25.28 -3.8 25.2 72 -8.1 17.5 -92.1 -3.626
02:24 1027 30.33 856 25.28 -4 24.8 71 -8.5 16.7 -92.1 -3.626
02:25 1027 30.33 856 25.28 -4.5 24 73 -8.6 16.6 -92.1 -3.626
02:26 1027 30.33 856 25.28 -4.8 23.3 75 -8.7 16.4 -92.1 -3.626
02:27 1027 30.33 856 25.28 -5.2 22.6 77 -8.7 16.4 -92.1 -3.626
02:28 1027 30.33 856 25.28 -5.4 22.3 78 -8.7 16.3 -92.1 -3.626
02:29 1027 30.33 856 25.28 -5.5 22 80 -8.4 16.9 -92.1 -3.626
02:30 1027 30.33 856 25.28 -5.4 22.2 79 -8.6 16.6 -92.1 -3.626
02:31 1027 30.33 856 25.28 -5.4 22.2 80 -8.4 16.8 -92.1 -3.626
02:32 1027 30.33 856 25.28 -5.1 22.9 78 -8.4 16.9 -92.1 -3.626
02:33 1027 30.33 856 25.28 -4.8 23.4 75 -8.5 16.7 -92.1 -3.626
02:34 1027 30.33 856 25.28 -4.7 23.5 77 -8.1 17.5 -92.1 -3.626
02:35 1027 30.33 856 25.28 -4.5 23.9 76 -8.1 17.5 -92.1 -3.626
02:36 1027 30.33 856 25.28 -4.3 24.3 74 -8.2 17.3 -92.1 -3.626
02:37 1027 30.33 856 25.28 -4.2 24.5 73 -8.3 17.1 -92.1 -3.626
02:38 1027 30.33 856 25.28 -4.3 24.3 75 -8.1 17.4 -92.1 -3.626
02:39 1027 30.33 856 25.28 -4.3 24.3 76 -8 17.7 -92.1 -3.626
02:40 1027 30.33 856 25.28 -4.2 24.5 75 -8 17.6 -92.1 -3.626
02:41 1027 30.33 856 25.28 -4 24.8 74 -8 17.6 -92.1 -3.626
02:42 1027 30.33 856 25.28 -4 24.9 74 -8 17.6 -92.2 -3.63
02:43 1027 30.33 856 25.28 -3.9 24.9 73 -8 17.5 -92.2 -3.63
02:44 1027 30.33 856 25.28 -4 24.8 74 -8 17.7 -92.2 -3.63
02:45 1027 30.33 856 25.28 -3.9 25 73 -8 17.5 -92.2 -3.63
02:46 1027 30.33 856 25.28 -3.9 25 74 -7.9 17.8 -92.2 -3.63
02:47 1027 30.33 856 25.28 -3.8 25.2 73 -7.9 17.7 -92.2 -3.63
02:48 1027 30.33 856 25.28 -3.6 25.5 72 -8 17.6 -92.2 -3.63
02:49 1027 30.33 856 25.28 -3.5 25.7 71 -8 17.7 -92.2 -3.63
02:50 1027 30.33 856 25.28 -3.5 25.8 71 -8 17.6 -92.2 -3.63
02:51 1027 30.33 856 25.28 -3.5 25.6 71 -8 17.6 -92.2 -3.63
02:52 1027 30.33 856 25.28 -3.6 25.5 71 -8.1 17.4 -92.2 -3.63
02:53 1027 30.33 856 25.28 -3.8 25.2 72 -8.1 17.4 -92.2 -3.63
02:54 1027 30.33 856 25.28 -3.9 24.9 72 -8.3 17.1 -92.2 -3.63
02:55 1027 30.33 856 25.28 -4.1 24.5 73 -8.4 16.9 -92.2 -3.63
02:56 1027 30.33 856 25.28 -4.4 24.2 73 -8.5 16.6 -92.2 -3.63
02:57 1027 30.33 856 25.28 -4.6 23.8 74 -8.6 16.5 -92.2 -3.63
02:58 1027 30.33 856 25.28 -4.8 23.4 74 -8.8 16.2 -92.2 -3.63
02:59 1027 30.33 856 25.28 -5.1 22.9 75 -8.9 16 -92.2 -3.63
03:00 1027 30.33 856 25.28 -5.3 22.4 76 -8.9 15.9 -92.2 -3.63
03:01 1027 30.33 856 25.28 -5.5 22.2 77 -8.9 16 -92.2 -3.63
03:02 1027 30.33 856 25.28 -5.6 21.9 77 -9 15.8 -92.2 -3.63
03:03 1027 30.33 856 25.28 -5.7 21.8 77 -9.1 15.7 -92.2 -3.63
03:04 1027 30.33 856 25.28 -5.8 21.6 78 -9 15.8 -92.2 -3.63
03:05 1027 30.33 856 25.28 -5.8 21.6 79 -8.8 16.1 -92.2 -3.63
03:06 1027 30.33 856 25.28 -5.7 21.8 79 -8.7 16.3 -92.2 -3.63
03:07 1027 30.33 856 25.28 -5.5 22.1 78 -8.8 16.2 -92.2 -3.63
03:08 1027 30.33 856 25.28 -5.4 22.4 78 -8.6 16.5 -92.2 -3.63
03:09 1027 30.33 856 25.28 -5.2 22.7 77 -8.5 16.6 -92.2 -3.63
03:10 1027 30.33 856 25.28 -5 23 76 -8.6 16.4 -92.2 -3.63
03:11 1027 30.33 856 25.28 -4.9 23.1 76 -8.5 16.8 -92.2 -3.63
03:12 1027 30.33 856 25.28 -4.9 23.2 76 -8.5 16.7 -92.2 -3.63
03:13 1027 30.33 856 25.28 -4.8 23.3 76 -8.5 16.7 -92.2 -3.63
03:14 1027 30.33 856 25.28 -4.8 23.3 76 -8.5 16.7 -92.2 -3.63
03:15 1027 30.33 856 25.28 -4.8 23.3 76 -8.5 16.7 -92.2 -3.63
03:16 1027 30.33 856 25.28 -4.9 23.2 76 -8.6 16.6 -92.2 -3.63
03:17 1027 30.33 856 25.28 -5 23.1 76 -8.6 16.5 -92.3 -3.634
03:18 1027 30.33 856 25.28 -5 23 76 -8.6 16.5 -92.3 -3.634
03:19 1027 30.33 856 25.28 -5.1 22.9 76 -8.7 16.3 -92.3 -3.634
03:20 1027 30.33 856 25.28 -5.1 22.8 77 -8.6 16.5 -92.3 -3.634
03:21 1027 30.33 856 25.28 -5.2 22.7 77 -8.6 16.5 -92.2 -3.63
03:22 1027 30.33 856 25.28 -5.2 22.7 77 -8.6 16.5 -92.2 -3.63
03:23 1027 30.33 856 25.28 -5.1 22.8 77 -8.5 16.7 -92.2 -3.63
03:24 1027 30.33 857 25.31 -5.1 22.8 77 -8.5 16.7 -92.2 -3.63
03:25 1027 30.33 857 25.31 -5.1 22.9 76 -8.6 16.4 -92.2 -3.63
03:26 1028 30.36 857 25.31 -5.1 22.8 76 -8.7 16.3 -92.2 -3.63
03:27 1027 30.33 857 25.31 -5.2 22.6 77 -8.7 16.4 -92.2 -3.63
03:28 1028 30.36 857 25.31 -5.3 22.4 77 -8.7 16.4 -92.2 -3.63
03:29 1027 30.33 857 25.31 -5.4 22.4 75 -9.1 15.6 -92.2 -3.63
03:30 1028 30.36 857 25.31 -5.6 21.9 76 -9.3 15.3 -92.2 -3.63
03:31 1027 30.33 857 25.31 -5.9 21.3 76 -9.5 15 -92.3 -3.634
03:32 1028 30.36 857 25.31 -6.3 20.7 77 -9.7 14.6 -92.3 -3.634
03:33 1027 30.33 857 25.31 -6.6 20.2 80 -9.4 15 -92.3 -3.634
03:34 1027 30.33 857 25.31 -6.7 19.9 82 -9.4 15.1 -92.3 -3.634
03:35 1027 30.33 857 25.31 -6.7 20 82 -9.2 15.5 -92.3 -3.634
03:36 1027 30.33 857 25.31 -6.6 20.1 82 -9.2 15.5 -92.3 -3.634
03:37 1027 30.33 857 25.31 -6.5 20.2 82 -9.1 15.6 -92.3 -3.634
03:38 1027 30.33 857 25.31 -6.5 20.3 83 -9 15.8 -92.3 -3.634
03:39 1027 30.33 857 25.31 -6.4 20.4 84 -8.8 16.2 -92.3 -3.634
03:40 1027 30.33 857 25.31 -6.3 20.7 83 -8.7 16.3 -92.3 -3.634
03:41 1028 30.36 857 25.31 -6.2 20.9 82 -8.7 16.3 -92.3 -3.634
03:42 1028 30.36 857 25.31 -6.1 21 82 -8.6 16.5 -92.3 -3.634
03:43 1028 30.36 857 25.31 -6.1 21.1 83 -8.6 16.6 -92.3 -3.634
03:44 1027 30.33 857 25.31 -6 21.2 83 -8.5 16.7 -92.3 -3.634
03:45 1027 30.33 857 25.31 -5.9 21.3 82 -8.5 16.7 -92.3 -3.634
03:46 1027 30.33 857 25.31 -5.9 21.5 82 -8.4 16.9 -92.3 -3.634
03:47 1027 30.33 857 25.31 -5.8 21.6 82 -8.4 16.9 -92.3 -3.634
03:48 1027 30.33 857 25.31 -5.7 21.8 82 -8.3 17 -92.3 -3.634
03:49 1028 30.36 857 25.31 -5.6 21.9 82 -8.3 17.1 -92.3 -3.634
03:50 1028 30.36 857 25.31 -5.5 22 82 -8.2 17.3 -92.3 -3.634
03:51 1028 30.36 857 25.31 -5.5 22.1 82 -8.2 17.3 -92.3 -3.634
03:52 1028 30.36 857 25.31 -5.4 22.3 81 -8.1 17.4 -92.3 -3.634
03:53 1028 30.36 857 25.31 -5.3 22.4 81 -8.1 17.5 -92.3 -3.634
03:54 1027 30.33 857 25.31 -5.2 22.6 81 -8 17.6 -92.3 -3.634
03:55 1027 30.33 857 25.31 -5.2 22.6 81 -8 17.6 -92.3 -3.634
03:56 1027 30.33 857 25.31 -5.2 22.7 81 -8 17.7 -92.3 -3.634
03:57 1027 30.33 857 25.31 -5.2 22.7 81 -8 17.7 -92.3 -3.634
03:58 1027 30.33 857 25.31 -5.1 22.8 81 -7.9 17.8 -92.3 -3.634
03:59 1027 30.33 857 25.31 -5.1 22.9 81 -7.9 17.8 -92.3 -3.634
04:00 1027 30.33 857 25.31 -5 23 81 -7.8 17.9 -92.3 -3.634
04:01 1027 30.33 857 25.31 -5 22.9 81 -7.9 17.8 -92.3 -3.634
04:02 1027 30.33 857 25.31 -5 23 81 -7.9 17.9 -92.3 -3.634
04:03 1028 30.36 857 25.31 -5.1 22.9 81 -7.8 17.9 -92.3 -3.634
04:04 1028 30.36 857 25.31 -5.1 22.9 81 -7.8 17.9 -92.3 -3.634
04:05 1028 30.36 857 25.31 -5.1 22.9 81 -7.8 17.9 -92.3 -3.634
04:06 1028 30.36 857 25.31 -5.1 22.9 81 -7.8 18 -92.3 -3.634
04:07 1027 30.33 857 25.31 -5 23 81 -7.7 18.1 -92.3 -3.634
04:08 1027 30.33 857 25.31 -5 23 81 -7.8 18 -92.3 -3.634
04:09 1027 30.33 857 25.31 -4.9 23.1 81 -7.7 18.1 -92.3 -3.634
04:10 1027 30.33 857 25.31 -5 23 81 -7.8 18 -92.3 -3.634
04:11 1027 30.33 857 25.31 -4.9 23.2 81 -7.7 18.1 -92.3 -3.634
04:12 1027 30.33 857 25.31 -4.9 23.2 81 -7.7 18.1 -92.3 -3.634
04:13 1027 30.33 857 25.31 -4.9 23.2 81 -7.7 18.1 -92.3 -3.634
04:14 1027 30.33 857 25.31 -4.9 23.3 80 -7.7 18.1 -92.3 -3.634
04:15 1027 30.33 857 25.31 -4.9 23.2 80 -7.7 18.1 -92.3 -3.634
04:16 1028 30.36 857 25.31 -4.9 23.2 80 -7.7 18.1 -92.3 -3.634
04:17 1028 30.36 857 25.31 -4.8 23.3 80 -7.7 18.1 -92.3 -3.634
04:18 1027 30.33 857 25.31 -4.8 23.4 80 -7.7 18.1 -92.3 -3.634
04:19 1028 30.36 857 25.31 -4.8 23.3 80 -7.8 17.9 -92.3 -3.634
04:20 1027 30.33 857 25.31 -4.8 23.3 80 -7.7 18.1 -92.3 -3.634
04:21 1027 30.33 857 25.31 -4.9 23.2 80 -7.8 18 -92.3 -3.634
04:22 1027 30.33 857 25.31 -4.9 23.1 81 -7.8 18 -92.3 -3.634
04:23 1027 30.33 857 25.31 -4.9 23.1 81 -7.8 18 -92.3 -3.634
04:24 1027 30.33 857 25.31 -5 23.1 81 -7.8 18 -92.3 -3.634
04:25 1027 30.33 857 25.31 -5 23.1 81 -7.8 18 -92.3 -3.634
04:26 1027 30.33 857 25.31 -5 22.9 81 -7.8 17.9 -92.3 -3.634
04:27 1027 30.33 857 25.31 -5.1 22.9 81 -7.8 18 -92.3 -3.634
04:28 1027 30.33 857 25.31 -5.2 22.7 81 -7.9 17.8 -92.3 -3.634
04:29 1027 30.33 857 25.31 -5.2 22.6 81 -7.9 17.7 -92.3 -3.634
04:30 1027 30.33 857 25.31 -5.3 22.4 81 -8 17.6 -92.3 -3.634
04:31 1027 30.33 857 25.31 -5.4 22.3 82 -8 17.6 -92.3 -3.634
04:32 1027 30.33 857 25.31 -5.5 22.1 82 -8 17.5 -92.3 -3.634
04:33 1027 30.33 856 25.28 -5.6 21.9 83 -8.1 17.5 -92.3 -3.634
04:34 1027 30.33 856 25.28 -5.7 21.7 84 -8 17.5 -92.3 -3.634
04:35 1027 30.33 856 25.28 -5.7 21.7 84 -8 17.7 -92.3 -3.634
04:36 1027 30.33 856 25.28 -5.7 21.8 85 -7.9 17.9 -92.2 -3.63
04:37 1027 30.33 856 25.28 -5.6 21.9 85 -7.8 18 -92.2 -3.63
04:38 1027 30.33 856 25.28 -5.5 22.1 85 -7.7 18.1 -92.2 -3.63
04:39 1027 30.33 857 25.31 -5.4 22.3 84 -7.7 18.2 -92.2 -3.63
04:40 1027 30.33 857 25.31 -5.4 22.4 84 -7.7 18.2 -92.2 -3.63
04:41 1027 30.33 857 25.31 -5.3 22.5 84 -7.6 18.3 -92.2 -3.63
04:42 1027 30.33 857 25.31 -5.2 22.6 83 -7.6 18.2 -92.2 -3.63
04:43 1027 30.33 857 25.31 -5.2 22.7 83 -7.7 18.1 -92.2 -3.63
04:44 1027 30.33 857 25.31 -5.2 22.6 82 -7.8 17.9 -92.2 -3.63
04:45 1027 30.33 857 25.31 -5.3 22.5 82 -7.8 17.9 -92.2 -3.63
04:46 1027 30.33 857 25.31 -5.4 22.3 83 -7.8 17.9 -92.2 -3.63
04:47 1027 30.33 857 25.31 -5.4 22.2 83 -7.9 17.9 -92.2 -3.63
04:48 1027 30.33 857 25.31 -5.5 22.2 83 -7.9 17.8 -92.2 -3.63
04:49 1028 30.36 857 25.31 -5.5 22.1 83 -8 17.6 -92.2 -3.63
04:50 1028 30.36 857 25.31 -5.6 21.9 83 -8 17.6 -92.2 -3.63
04:51 1028 30.36 857 25.31 -5.7 21.7 84 -8.1 17.5 -92.2 -3.63
04:52 1028 30.36 857 25.31 -5.8 21.6 84 -8.1 17.4 -92.2 -3.63
04:53 1028 30.36 857 25.31 -5.9 21.4 84 -8.2 17.3 -92.2 -3.63
04:54 1028 30.36 857 25.31 -5.9 21.3 84 -8.2 17.2 -92.2 -3.63
04:55 1028 30.36 857 25.31 -6 21.3 84 -8.3 17.1 -92.2 -3.63
04:56 1028 30.36 857 25.31 -6 21.1 84 -8.3 17 -92.2 -3.63
04:57 1028 30.36 857 25.31 -6.1 20.9 84 -8.4 16.8 -92.2 -3.63
04:58 1028 30.36 857 25.31 -6.2 20.8 84 -8.5 16.7 -92.2 -3.63
04:59 1028 30.36 857 25.31 -6.3 20.6 84 -8.6 16.6 -92.2 -3.63
05:00 1028 30.36 857 25.31 -6.4 20.4 85 -8.6 16.6 -92.2 -3.63
05:01 1028 30.36 857 25.31 -6.5 20.3 86 -8.5 16.7 -92.2 -3.63
05:02 1028 30.36 857 25.31 -6.5 20.3 86 -8.6 16.6 -92.2 -3.63
05:03 1028 30.36 857 25.31 -6.5 20.3 85 -8.6 16.6 -92.2 -3.63
05:04 1028 30.36 857 25.31 -6.5 20.3 85 -8.5 16.6 -92.2 -3.63
05:05 1028 30.36 857 25.31 -6.4 20.4 85 -8.6 16.6 -92.2 -3.63
05:06 1028 30.36 857 25.31 -6.4 20.5 85 -8.6 16.6 -92.2 -3.63
05:07 1028 30.36 857 25.31 -6.4 20.5 85 -8.6 16.6 -92.2 -3.63
05:08 1028 30.36 857 25.31 -6.4 20.5 84 -8.7 16.4 -92.2 -3.63
05:09 1028 30.36 857 25.31 -6.4 20.6 84 -8.7 16.3 -92.2 -3.63
05:10 1028 30.36 857 25.31 -6.4 20.6 84 -8.7 16.4 -92.2 -3.63
05:11 1028 30.36 857 25.31 -6.4 20.5 83 -8.8 16.2 -92.2 -3.63
05:12 1028 30.36 857 25.31 -6.4 20.4 84 -8.8 16.2 -92.2 -3.63
05:13 1028 30.36 857 25.31 -6.4 20.4 84 -8.8 16.2 -92.2 -3.63
05:14 1028 30.36 857 25.31 -6.4 20.4 83 -8.8 16.1 -92.2 -3.63
05:15 1028 30.36 857 25.31 -6.4 20.4 84 -8.8 16.2 -92.2 -3.63
05:16 1028 30.36 857 25.31 -6.4 20.4 83 -8.9 16 -92.2 -3.63
05:17 1028 30.36 857 25.31 -6.5 20.4 83 -8.9 16.1 -92.2 -3.63
05:18 1028 30.36 857 25.31 -6.4 20.4 83 -8.8 16.1 -92.2 -3.63
05:19 1028 30.36 857 25.31 -6.5 20.3 83 -9 15.9 -92.2 -3.63
05:20 1028 30.36 857 25.31 -6.5 20.3 83 -8.9 16 -92.3 -3.634
05:21 1028 30.36 857 25.31 -6.6 20.2 83 -9 15.9 -92.3 -3.634
05:22 1028 30.36 857 25.31 -6.5 20.2 83 -8.9 15.9 -92.3 -3.634
05:23 1028 30.36 857 25.31 -6.5 20.3 83 -8.9 16 -92.3 -3.634
05:24 1028 30.36 857 25.31 -6.5 20.3 83 -9 15.9 -92.3 -3.634
05:25 1028 30.36 857 25.31 -6.4 20.4 83 -8.9 15.9 -92.3 -3.634
05:26 1028 30.36 857 25.31 -6.4 20.5 82 -9 15.8 -92.3 -3.634
05:27 1028 30.36 857 25.31 -6.4 20.5 81 -9.1 15.6 -92.3 -3.634
05:28 1028 30.36 857 25.31 -6.5 20.4 81 -9.2 15.4 -92.3 -3.634
05:29 1028 30.36 857 25.31 -6.5 20.2 82 -9.2 15.5 -92.3 -3.634
05:30 1028 30.36 857 25.31 -6.6 20.2 81 -9.3 15.3 -92.3 -3.634
05:31 1028 30.36 857 25.31 -6.6 20.1 82 -9.2 15.5 -92.3 -3.634
05:32 1028 30.36 857 25.31 -6.6 20.2 82 -9.1 15.5 -92.3 -3.634
05:33 1028 30.36 857 25.31 -6.5 20.2 82 -9.2 15.5 -92.3 -3.634
05:34 1028 30.36 857 25.31 -6.5 20.3 81 -9.2 15.4 -92.3 -3.634
05:35 1028 30.36 857 25.31 -6.5 20.2 81 -9.3 15.2 -92.3 -3.634
05:36 1028 30.36 857 25.31 -6.7 20 81 -9.3 15.2 -92.3 -3.634
05:37 1028 30.36 857 25.31 -6.7 20 82 -9.3 15.2 -92.3 -3.634
05:38 1028 30.36 857 25.31 -6.6 20.1 82 -9.2 15.4 -92.3 -3.634
05:39 1028 30.36 857 25.31 -6.6 20.2 81 -9.2 15.4 -92.3 -3.634
05:40 1028 30.36 857 25.31 -6.5 20.3 81 -9.3 15.3 -92.3 -3.634
05:41 1028 30.36 857 25.31 -6.5 20.3 81 -9.3 15.3 -92.3 -3.634
05:42 1028 30.36 857 25.31 -6.5 20.2 81 -9.3 15.3 -92.4 -3.638
05:43 1028 30.36 857 25.31 -6.6 20.1 81 -9.4 15.2 -92.4 -3.638
05:44 1028 30.36 857 25.31 -6.6 20.1 81 -9.3 15.3 -92.4 -3.638
05:45 1028 30.36 857 25.31 -6.6 20.1 81 -9.3 15.3 -92.4 -3.638
05:46 1028 30.36 857 25.31 -6.5 20.3 81 -9.2 15.5 -92.4 -3.638
05:47 1028 30.36 857 25.31 -6.4 20.4 81 -9.2 15.4 -92.4 -3.638
05:48 1028 30.36 857 25.31 -6.4 20.4 80 -9.3 15.2 -92.4 -3.638
05:49 1028 30.36 857 25.31 -6.5 20.3 80 -9.4 15.1 -92.4 -3.638
05:50 1028 30.36 857 25.31 -6.5 20.2 80 -9.5 15 -92.4 -3.638
05:51 1028 30.36 857 25.31 -6.6 20.1 80 -9.4 15 -92.4 -3.638
05:52 1028 30.36 857 25.31 -6.6 20.1 80 -9.5 15 -92.4 -3.638
05:53 1028 30.36 857 25.31 -6.7 20 80 -9.5 14.8 -92.4 -3.638
05:54 1028 30.36 857 25.31 -6.7 19.9 80 -9.6 14.8 -92.4 -3.638
05:55 1028 30.36 857 25.31 -6.7 19.9 80 -9.6 14.7 -92.4 -3.638
05:56 1028 30.36 857 25.31 -6.8 19.8 80 -9.6 14.7 -92.4 -3.638
05:57 1028 30.36 857 25.31 -6.8 19.8 80 -9.6 14.7 -92.4 -3.638
05:58 1028 30.36 857 25.31 -6.8 19.8 80 -9.6 14.7 -92.4 -3.638
05:59 1028 30.36 857 25.31 -6.8 19.8 80 -9.6 14.7 -92.4 -3.638
06:00 1028 30.36 857 25.31 -6.8 19.8 80 -9.7 14.5 -92.4 -3.638
06:01 1028 30.36 857 25.31 -6.8 19.7 80 -9.8 14.4 -92.4 -3.638
06:02 1028 30.36 857 25.31 -6.8 19.7 80 -9.7 14.5 -92.5 -3.642
06:03 1028 30.36 857 25.31 -6.8 19.7 80 -9.7 14.5 -92.5 -3.642
06:04 1028 30.36 857 25.31 -6.8 19.7 80 -9.7 14.5 -92.5 -3.642
06:05 1028 30.36 857 25.31 -6.9 19.7 80 -9.8 14.3 -92.5 -3.642
06:06 1028 30.36 857 25.31 -6.9 19.6 80 -9.8 14.4 -92.5 -3.642
06:07 1028 30.36 857 25.31 -7 19.5 80 -9.8 14.3 -92.5 -3.642
06:08 1028 30.36 857 25.31 -7 19.5 81 -9.7 14.5 -92.5 -3.642
06:09 1028 30.36 857 25.31 -6.9 19.6 80 -9.9 14.2 -92.5 -3.642
06:10 1028 30.36 857 25.31 -6.9 19.5 80 -9.9 14.2 -92.5 -3.642
06:11 1028 30.36 857 25.31 -7 19.4 80 -9.8 14.3 -92.5 -3.642
06:12 1028 30.36 857 25.31 -7 19.4 80 -9.9 14.1 -92.5 -3.642
06:13 1028 30.36 857 25.31 -7.1 19.3 80 -10 14 -92.5 -3.642
06:14 1028 30.36 857 25.31 -7.2 19 79 -10.3 13.5 -92.5 -3.642
06:15 1028 30.36 857 25.31 -7.4 18.7 80 -10.2 13.6 -92.5 -3.642
06:16 1028 30.36 857 25.31 -7.6 18.4 80 -10.4 13.3 -92.5 -3.642
06:17 1028 30.36 857 25.31 -7.7 18.2 81 -10.4 13.3 -92.6 -3.646
06:18 1028 30.36 857 25.31 -7.7 18.2 81 -10.4 13.3 -92.6 -3.646
06:19 1028 30.36 857 25.31 -7.7 18.1 80 -10.6 12.9 -92.6 -3.646
06:20 1028 30.36 857 25.31 -7.9 17.9 80 -10.7 12.8 -92.6 -3.646
06:21 1028 30.36 857 25.31 -8 17.6 80 -10.9 12.4 -92.6 -3.646
06:22 1028 30.36 857 25.31 -8.2 17.2 80 -11.1 12.1 -92.6 -3.646
06:23 1028 30.36 857 25.31 -8.4 16.8 81 -11.1 12.1 -92.6 -3.646
06:24 1028 30.36 857 25.31 -8.5 16.6 82 -11.1 12.1 -92.6 -3.646
06:25 1028 30.36 857 25.31 -8.6 16.6 82 -11.1 12 -92.6 -3.646
06:26 1028 30.36 857 25.31 -8.6 16.5 82 -11.1 12 -92.6 -3.646
06:27 1028 30.36 857 25.31 -8.7 16.3 82 -11.2 11.8 -92.6 -3.646
06:28 1028 30.36 857 25.31 -8.9 16 83 -11.3 11.7 -92.6 -3.646
06:29 1028 30.36 857 25.31 -8.9 16 85 -11 12.2 -92.6 -3.646
06:30 1028 30.36 857 25.31 -8.8 16.2 85 -10.9 12.4 -92.6 -3.646
06:31 1028 30.36 857 25.31 -8.6 16.4 85 -10.8 12.6 -92.6 -3.646
06:32 1028 30.36 857 25.31 -8.5 16.8 84 -10.7 12.8 -92.6 -3.646
06:33 1028 30.36 857 25.31 -8.3 17 83 -10.7 12.7 -92.6 -3.646
06:34 1028 30.36 857 25.31 -8.3 17.1 82 -10.8 12.6 -92.6 -3.646
06:35 1028 30.36 857 25.31 -8.2 17.2 83 -10.7 12.8 -92.6 -3.646
06:36 1028 30.36 857 25.31 -8.2 17.2 82 -10.7 12.7 -92.6 -3.646
06:37 1028 30.36 857 25.31 -8.2 17.3 82 -10.8 12.6 -92.6 -3.646
06:38 1028 30.36 857 25.31 -8.3 17.1 80 -11.2 11.9 -92.6 -3.646
06:39 1028 30.36 857 25.31 -8.5 16.8 80 -11.3 11.7 -92.6 -3.646
06:40 1028 30.36 857 25.31 -8.7 16.3 82 -11.3 11.7 -92.6 -3.646
06:41 1028 30.36 857 25.31 -8.9 15.9 82 -11.5 11.3 -92.6 -3.646
06:42 1028 30.36 857 25.31 -9.2 15.5 83 -11.5 11.3 -92.7 -3.65
06:43 1028 30.36 857 25.31 -9.3 15.3 83 -11.6 11.1 -92.7 -3.65
06:44 1028 30.36 857 25.31 -9.5 15 83 -11.8 10.8 -92.7 -3.65
06:45 1028 30.36 857 25.31 -9.6 14.7 83 -11.9 10.5 -92.7 -3.65
06:46 1028 30.36 857 25.31 -9.8 14.4 84 -12 10.4 -92.7 -3.65
06:47 1028 30.36 857 25.31 -10 14 84 -12.1 10.1 -92.7 -3.65
06:48 1028 30.36 857 25.31 -10.1 13.7 85 -12.2 10 -92.7 -3.65
06:49 1028 30.36 857 25.31 -10.3 13.6 85 -12.3 9.9 -92.7 -3.65
06:50 1028 30.36 857 25.31 -10.3 13.4 85 -12.4 9.8 -92.7 -3.65
06:51 1028 30.36 857 25.31 -10.5 13.2 86 -12.5 9.6 -92.7 -3.65
06:52 1028 30.36 857 25.31 -10.6 13 86 -12.5 9.6 -92.7 -3.65
06:53 1028 30.36 857 25.31 -10.6 12.9 87 -12.4 9.6 -92.7 -3.65
06:54 1028 30.36 857 25.31 -10.6 12.9 88 -12.3 9.9 -92.7 -3.65
06:55 1028 30.36 857 25.31 -10.5 13.1 89 -12 10.4 -92.7 -3.65
06:56 1028 30.36 857 25.31 -10.4 13.3 88 -12.1 10.3 -92.7 -3.65
06:57 1028 30.36 857 25.31 -10.4 13.3 88 -12 10.4 -92.7 -3.65
06:58 1028 30.36 857 25.31 -10.3 13.5 88 -11.9 10.5 -92.7 -3.65
06:59 1028 30.36 857 25.31 -10.2 13.6 87 -11.9 10.5 -92.7 -3.65
07:00 1027 30.33 857 25.31 -10.2 13.7 87 -12 10.4 -92.7 -3.65
07:01 1027 30.33 857 25.31 -10.2 13.7 87 -12 10.4 -92.7 -3.65
07:02 1027 30.33 857 25.31 -10.2 13.6 87 -11.9 10.6 -92.7 -3.65
07:03 1027 30.33 857 25.31 -10.1 13.8 87 -11.8 10.7 -92.7 -3.65
07:04 1028 30.36 857 25.31 -10.1 13.9 88 -11.7 10.9 -92.7 -3.65
07:05 1028 30.36 857 25.31 -10 14 86 -11.9 10.6 -92.7 -3.65
07:06 1028 30.36 857 25.31 -10 14 86 -11.9 10.5 -92.7 -3.65
07:07 1028 30.36 857 25.31 -10.1 13.9 87 -11.9 10.7 -92.7 -3.65
07:08 1028 30.36 857 25.31 -10 13.9 87 -11.8 10.7 -92.7 -3.65
07:09 1028 30.36 857 25.31 -10 14 87 -11.8 10.7 -92.7 -3.65
07:10 1028 30.36 857 25.31 -10 14.1 86 -11.8 10.7 -92.7 -3.65
07:11 1028 30.36 857 25.31 -9.9 14.1 86 -11.8 10.8 -92.7 -3.65
07:12 1028 30.36 857 25.31 -10 14 85 -12 10.4 -92.7 -3.65
07:13 1028 30.36 857 25.31 -10 14 86 -11.9 10.6 -92.7 -3.65
07:14 1028 30.36 857 25.31 -10 14 86 -11.9 10.5 -92.7 -3.65
07:15 1028 30.36 857 25.31 -10.1 13.9 86 -12 10.4 -92.7 -3.65
07:16 1028 30.36 857 25.31 -10.1 13.7 84 -12.3 9.9 -92.7 -3.65
07:17 1028 30.36 857 25.31 -10.3 13.4 84 -12.5 9.5 -92.7 -3.65
07:18 1028 30.36 857 25.31 -10.6 12.9 86 -12.5 9.5 -92.8 -3.654
07:19 1028 30.36 857 25.31 -10.7 12.8 88 -12.2 10 -92.8 -3.654
07:20 1028 30.36 857 25.31 -10.6 12.9 89 -12.1 10.3 -92.8 -3.654
07:21 1028 30.36 857 25.31 -10.5 13.2 89 -12 10.5 -92.8 -3.654
07:22 1028 30.36 857 25.31 -10.3 13.5 90 -11.7 11 -92.7 -3.65
07:23 1028 30.36 857 25.31 -10 14 90 -11.4 11.6 -92.7 -3.65
07:24 1028 30.36 857 25.31 -9.8 14.5 88 -11.4 11.5 -92.7 -3.65
07:25 1028 30.36 857 25.31 -9.6 14.8 87 -11.4 11.6 -92.7 -3.65
07:26 1028 30.36 857 25.31 -9.5 14.9 86 -11.4 11.5 -92.7 -3.65
07:27 1028 30.36 857 25.31 -9.4 15 87 -11.2 11.8 -92.7 -3.65
07:28 1028 30.36 857 25.31 -9.4 15.2 87 -11.1 12.1 -92.7 -3.65
07:29 1028 30.36 857 25.31 -9.1 15.5 87 -10.9 12.3 -92.7 -3.65
07:30 1028 30.36 857 25.31 -8.9 16.1 86 -10.8 12.5 -92.7 -3.65
07:31 1028 30.36 857 25.31 -8.7 16.3 84 -10.9 12.4 -92.7 -3.65
07:32 1028 30.36 857 25.31 -8.7 16.3 84 -11 12.2 -92.7 -3.65
07:33 1028 30.36 857 25.31 -8.7 16.4 85 -10.8 12.6 -92.8 -3.654
07:34 1028 30.36 857 25.31 -8.6 16.5 85 -10.7 12.7 -92.7 -3.65
07:35 1028 30.36 857 25.31 -8.5 16.7 84 -10.7 12.7 -92.7 -3.65
07:36 1028 30.36 857 25.31 -8.4 16.9 84 -10.6 12.9 -92.7 -3.65
07:37 1028 30.36 857 25.31 -8.3 17 84 -10.7 12.8 -92.8 -3.654
07:38 1028 30.36 857 25.31 -8.3 17 83 -10.7 12.7 -92.8 -3.654
07:39 1028 30.36 857 25.31 -8.4 16.9 83 -10.7 12.7 -92.8 -3.654
07:40 1028 30.36 857 25.31 -8.3 17 83 -10.8 12.6 -92.8 -3.654
07:41 1028 30.36 857 25.31 -8.4 16.9 83 -10.8 12.6 -92.8 -3.654
07:42 1028 30.36 857 25.31 -8.4 17 83 -10.7 12.7 -92.8 -3.654
07:43 1028 30.36 857 25.31 -8.4 16.9 83 -10.8 12.6 -92.8 -3.654
07:44 1028 30.36 857 25.31 -8.3 17 83 -10.7 12.7 -92.8 -3.654
07:45 1028 30.36 857 25.31 -8.3 17.1 83 -10.7 12.8 -92.8 -3.654
07:46 1028 30.36 857 25.31 -8.2 17.2 82 -10.8 12.6 -92.8 -3.654
07:47 1028 30.36 857 25.31 -8.2 17.2 82 -10.7 12.7 -92.8 -3.654
07:48 1028 30.36 857 25.31 -8.1 17.3 83 -10.5 13 -92.8 -3.654
07:49 1028 30.36 857 25.31 -8 17.6 82 -10.6 12.9 -92.8 -3.654
07:50 1028 30.36 857 25.31 -8 17.6 79 -11 12.3 -92.8 -3.654
07:51 1028 30.36 857 25.31 -8.1 17.4 79 -11.1 12 -92.8 -3.654
07:52 1028 30.36 857 25.31 -8.3 17 80 -11.2 11.9 -92.8 -3.654
07:53 1028 30.36 857 25.31 -8.5 16.8 80 -11.3 11.6 -92.8 -3.654
07:54 1028 30.36 857 25.31 -8.7 16.4 81 -11.4 11.5 -92.8 -3.654
07:55 1028 30.36 857 25.31 -8.8 16.2 81 -11.5 11.3 -92.8 -3.654
07:56 1028 30.36 857 25.31 -9 15.9 80 -11.7 10.9 -92.8 -3.654
07:57 1028 30.36 857 25.31 -9.3 15.3 80 -12.1 10.2 -92.8 -3.654
07:58 1028 30.36 857 25.31 -9.6 14.7 81 -12.2 10 -92.8 -3.654
07:59 1028 30.36 857 25.31 -9.8 14.4 84 -12 10.3 -92.9 -3.657
08:00 1028 30.36 857 25.31 -9.8 14.3 84 -12.1 10.2 -92.9 -3.657
08:01 1028 30.36 857 25.31 -9.9 14.1 84 -12.1 10.2 -92.9 -3.657
08:02 1028 30.36 857 25.31 -9.9 14.1 85 -12 10.3 -92.9 -3.657
08:03 1028 30.36 857 25.31 -9.9 14.3 86 -11.8 10.7 -92.9 -3.657
08:04 1028 30.36 857 25.31 -9.7 14.5 86 -11.7 10.9 -92.9 -3.657
08:05 1028 30.36 857 25.31 -9.6 14.7 85 -11.7 10.9 -92.9 -3.657
08:06 1028 30.36 857 25.31 -9.6 14.7 83 -11.9 10.5 -92.9 -3.657
08:07 1028 30.36 857 25.31 -9.7 14.5 82 -12.2 10.1 -92.9 -3.657
08:08 1028 30.36 857 25.31 -9.9 14.1 82 -12.4 9.7 -92.9 -3.657
08:09 1028 30.36 857 25.31 -10.1 13.8 83 -12.5 9.4 -92.9 -3.657
08:10 1028 30.36 857 25.31 -10.3 13.5 84 -12.5 9.4 -92.9 -3.657
08:11 1028 30.36 857 25.31 -10.4 13.4 85 -12.4 9.6 -92.9 -3.657
08:12 1028 30.36 857 25.31 -10.3 13.4 86 -12.3 9.9 -92.9 -3.657
08:13 1028 30.36 857 25.31 -10.3 13.5 86 -12.2 10.1 -92.9 -3.657
08:14 1028 30.36 857 25.31 -10.1 13.8 86 -12.1 10.2 -92.9 -3.657
08:15 1028 30.36 857 25.31 -10 14 86 -11.9 10.5 -92.9 -3.657
08:16 1028 30.36 857 25.31 -9.9 14.3 86 -11.8 10.8 -92.9 -3.657
08:17 1028 30.36 857 25.31 -9.7 14.5 86 -11.7 11 -92.9 -3.657
08:18 1028 30.36 857 25.31 -9.6 14.7 85 -11.7 11 -92.9 -3.657
08:19 1028 30.36 857 25.31 -9.5 15 85 -11.6 11.1 -92.9 -3.657
08:20 1028 30.36 857 25.31 -9.3 15.2 84 -11.5 11.2 -92.9 -3.657
08:21 1028 30.36 857 25.31 -9.2 15.4 84 -11.5 11.3 -92.9 -3.657
08:22 1028 30.36 857 25.31 -9.2 15.5 83 -11.5 11.2 -92.9 -3.657
08:23 1028 30.36 857 25.31 -9.2 15.5 84 -11.5 11.4 -92.9 -3.657
08:24 1028 30.36 857 25.31 -9.1 15.7 84 -11.3 11.6 -92.9 -3.657
08:25 1028 30.36 857 25.31 -9 15.9 83 -11.3 11.6 -92.9 -3.657
08:26 1028 30.36 857 25.31 -9 15.9 82 -11.4 11.4 -92.9 -3.657
08:27 1028 30.36 857 25.31 -9 15.8 82 -11.5 11.3 -92.9 -3.657
08:28 1028 30.36 857 25.31 -9 15.7 83 -11.5 11.4 -92.9 -3.657
08:29 1028 30.36 857 25.31 -9.1 15.6 83 -11.5 11.3 -92.9 -3.657
08:30 1028 30.36 857 25.31 -9.1 15.6 83 -11.5 11.3 -92.9 -3.657
08:31 1028 30.36 857 25.31 -9.1 15.6 83 -11.5 11.3 -92.9 -3.657
08:32 1028 30.36 857 25.31 -9.1 15.6 83 -11.4 11.5 -92.9 -3.657
08:33 1028 30.36 857 25.31 -9 15.7 83 -11.4 11.5 -92.9 -3.657
08:34 1028 30.36 857 25.31 -9 15.9 84 -11.2 11.8 -92.9 -3.657
08:35 1028 30.36 857 25.31 -8.9 16.1 84 -11.1 12 -92.9 -3.657
08:36 1028 30.36 857 25.31 -8.7 16.4 84 -11 12.2 -92.9 -3.657
08:37 1028 30.36 857 25.31 -8.6 16.5 83 -10.9 12.3 -92.9 -3.657
08:38 1028 30.36 857 25.31 -8.5 16.7 83 -10.9 12.4 -93 -3.661
08:39 1028 30.36 857 25.31 -8.4 16.9 83 -10.8 12.6 -93 -3.661
08:40 1028 30.36 857 25.31 -8.2 17.2 83 -10.6 12.9 -93 -3.661
08:41 1028 30.36 857 25.31 -8 17.6 83 -10.4 13.2 -93 -3.661
08:42 1028 30.36 857 25.31 -7.8 18 81 -10.4 13.2 -93 -3.661
08:43 1028 30.36 857 25.31 -7.6 18.2 81 -10.4 13.3 -93 -3.661
08:44 1028 30.36 857 25.31 -7.5 18.4 80 -10.4 13.3 -93 -3.661
08:45 1028 30.36 857 25.31 -7.4 18.6 80 -10.3 13.5 -93 -3.661
08:46 1028 30.36 857 25.31 -7.3 18.8 79 -10.3 13.4 -93 -3.661
08:47 1028 30.36 857 25.31 -7.3 18.9 79 -10.3 13.5 -93 -3.661
08:48 1028 30.36 857 25.31 -7.3 19 79 -10.2 13.6 -93 -3.661
08:49 1028 30.36 857 25.31 -7.2 19 80 -10.2 13.7 -93 -3.661
08:50 1028 30.36 857 25.31 -7.1 19.2 79 -10.3 13.5 -93 -3.661
08:51 1028 30.36 857 25.31 -7.1 19.2 79 -10.2 13.6 -93 -3.661
08:52 1028 30.36 857 25.31 -7.1 19.2 79 -10.2 13.6 -93 -3.661
08:53 1028 30.36 857 25.31 -7.1 19.3 79 -10.1 13.8 -93 -3.661
08:54 1028 30.36 857 25.31 -7 19.4 80 -10 14.1 -93 -3.661
08:55 1028 30.36 858 25.34 -7 19.4 79 -10 14 -93 -3.661
08:56 1028 30.36 858 25.34 -6.9 19.7 80 -9.8 14.3 -93 -3.661
08:57 1028 30.36 858 25.34 -6.7 19.9 80 -9.7 14.6 -93 -3.661
08:58 1028 30.36 858 25.34 -6.6 20.2 79 -9.6 14.8 -93 -3.661
08:59 1028 30.36 858 25.34 -6.4 20.5 79 -9.5 14.8 -93 -3.661
09:00 1028 30.36 858 25.34 -6.3 20.7 79 -9.4 15.1 -93 -3.661
09:01 1028 30.36 858 25.34 -6.2 20.8 79 -9.3 15.2 -93 -3.661
09:02 1029 30.39 858 25.34 -6.1 21 78 -9.4 15.1 -92.9 -3.657
09:03 1029 30.39 858 25.34 -6.1 21 78 -9.4 15.1 -92.9 -3.657
09:04 1029 30.39 858 25.34 -6.1 21 78 -9.4 15.1 -92.9 -3.657
09:05 1029 30.39 858 25.34 -6.2 20.9 78 -9.3 15.2 -92.9 -3.657
09:06 1029 30.39 858 25.34 -6.1 21 78 -9.3 15.3 -92.9 -3.657
09:07 1029 30.39 858 25.34 -6.1 21.1 78 -9.2 15.4 -92.9 -3.657
09:08 1029 30.39 858 25.34 -6 21.2 78 -9.2 15.4 -92.9 -3.657
09:09 1029 30.39 858 25.34 -5.9 21.4 77 -9.3 15.3 -92.9 -3.657
09:10 1029 30.39 858 25.34 -5.8 21.6 77 -9.2 15.4 -92.9 -3.657
09:11 1029 30.39 858 25.34 -5.7 21.7 77 -9.2 15.5 -92.9 -3.657
09:12 1029 30.39 858 25.34 -5.6 21.8 77 -9.1 15.6 -92.9 -3.657
09:13 1029 30.39 858 25.34 -5.6 21.9 77 -9.1 15.7 -92.9 -3.657
09:14 1029 30.39 858 25.34 -5.5 22.1 76 -9 15.8 -92.9 -3.657
09:15 1029 30.39 858 25.34 -5.4 22.3 75 -9.1 15.7 -92.9 -3.657
09:16 1029 30.39 858 25.34 -5.2 22.6 75 -9 15.8 -92.8 -3.654
09:17 1029 30.39 858 25.34 -5.2 22.7 75 -9 15.9 -92.8 -3.654
09:18 1029 30.39 858 25.34 -5.1 22.9 75 -8.9 16 -92.8 -3.654
09:19 1029 30.39 858 25.34 -5 23 74 -8.9 16.1 -92.8 -3.654
09:20 1029 30.39 858 25.34 -4.9 23.2 74 -8.8 16.2 -92.8 -3.654
09:21 1029 30.39 858 25.34 -4.8 23.3 74 -8.7 16.3 -92.8 -3.654
09:22 1029 30.39 858 25.34 -4.8 23.4 75 -8.6 16.5 -92.8 -3.654
09:23 1029 30.39 858 25.34 -4.7 23.5 73 -8.8 16.2 -92.8 -3.654
09:24 1029 30.39 858 25.34 -4.6 23.7 72 -8.9 16 -92.8 -3.654
09:25 1029 30.39 858 25.34 -4.6 23.7 73 -8.8 16.2 -92.8 -3.654
09:26 1029 30.39 858 25.34 -4.6 23.7 73 -8.8 16.1 -92.8 -3.654
09:27 1029 30.39 858 25.34 -4.7 23.6 74 -8.6 16.4 -92.8 -3.654
09:28 1029 30.39 858 25.34 -4.7 23.6 74 -8.6 16.4 -92.8 -3.654
09:29 1029 30.39 858 25.34 -4.7 23.5 74 -8.7 16.4 -92.8 -3.654
09:30 1029 30.39 858 25.34 -4.6 23.7 74 -8.5 16.6 -92.8 -3.654
09:31 1029 30.39 858 25.34 -4.6 23.8 73 -8.7 16.4 -92.8 -3.654
09:32 1029 30.39 858 25.34 -4.5 23.8 74 -8.5 16.7 -92.8 -3.654
09:33 1029 30.39 858 25.34 -4.4 24 75 -8.3 17 -92.8 -3.654
09:34 1029 30.39 858 25.34 -4.3 24.2 74 -8.3 17.1 -92.8 -3.654
09:35 1029 30.39 858 25.34 -4.3 24.2 72 -8.7 16.3 -92.8 -3.654
09:36 1029 30.39 858 25.34 -4.3 24.2 73 -8.5 16.7 -92.8 -3.654
09:37 1029 30.39 858 25.34 -4.4 24.1 73 -8.5 16.7 -92.8 -3.654
09:38 1029 30.39 858 25.34 -4.4 24.1 74 -8.4 16.8 -92.8 -3.654
09:39 1029 30.39 858 25.34 -4.4 24.1 74 -8.3 17 -92.8 -3.654
09:40 1029 30.39 858 25.34 -4.3 24.2 74 -8.3 17 -92.8 -3.654
09:41 1029 30.39 858 25.34 -4.2 24.4 74 -8.1 17.4 -92.8 -3.654
09:42 1029 30.39 858 25.34 -4.2 24.5 73 -8.3 17 -92.8 -3.654
09:43 1029 30.39 858 25.34 -4.1 24.7 72 -8.4 16.9 -92.8 -3.654
09:44 1029 30.39 858 25.34 -4 24.8 73 -8.2 17.3 -92.8 -3.654
09:45 1029 30.39 858 25.34 -3.9 25 73 -8 17.5 -92.8 -3.654
09:46 1029 30.39 858 25.34 -3.8 25.2 71 -8.3 17.1 -92.8 -3.654
09:47 1029 30.39 858 25.34 -3.7 25.3 72 -8.1 17.4 -92.8 -3.654
09:48 1029 30.39 858 25.34 -3.6 25.5 70 -8.3 17.1 -92.8 -3.654
09:49 1029 30.39 858 25.34 -3.5 25.7 69 -8.4 17 -92.8 -3.654
09:50 1029 30.39 858 25.34 -3.4 25.8 70 -8.2 17.2 -92.8 -3.654
09:51 1029 30.39 858 25.34 -3.4 26 71 -8 17.7 -92.8 -3.654
09:52 1029 30.39 858 25.34 -3.2 26.2 71 -7.8 18 -92.8 -3.654
09:53 1029 30.39 858 25.34 -3.1 26.5 69 -8 17.6 -92.8 -3.654
09:54 1029 30.39 858 25.34 -2.9 26.7 68 -8 17.6 -92.7 -3.65
09:55 1029 30.39 858 25.34 -2.9 26.8 68 -8 17.7 -92.7 -3.65
09:56 1029 30.39 858 25.34 -2.9 26.8 69 -7.8 18 -92.7 -3.65
09:57 1029 30.39 858 25.34 -2.8 26.9 69 -7.7 18.1 -92.7 -3.65
09:58 1029 30.39 858 25.34 -2.8 27 69 -7.8 18 -92.7 -3.65
09:59 1029 30.39 858 25.34 -2.8 27 69 -7.7 18.2 -92.7 -3.65
10:00 1029 30.39 858 25.34 -2.8 27 71 -7.3 18.8 -92.7 -3.65
10:01 1029 30.39 858 25.34 -2.7 27.1 69 -7.7 18.2 -92.7 -3.65
10:02 1029 30.39 858 25.34 -2.6 27.2 68 -7.7 18.2 -92.7 -3.65
10:03 1029 30.39 858 25.34 -2.6 27.3 68 -7.6 18.2 -92.7 -3.65
10:04 1029 30.39 858 25.34 -2.6 27.4 69 -7.5 18.5 -92.7 -3.65
10:05 1029 30.39 858 25.34 -2.6 27.3 66 -8.2 17.3 -92.7 -3.65
10:06 1029 30.39 858 25.34 -2.7 27.2 67 -8 17.6 -92.7 -3.65
10:07 1029 30.39 858 25.34 -2.7 27.1 67 -8 17.7 -92.7 -3.65
10:08 1029 30.39 858 25.34 -2.7 27.1 67 -8 17.7 -92.7 -3.65
10:09 1029 30.39 858 25.34 -2.7 27.2 68 -7.9 17.8 -92.6 -3.646
10:10 1029 30.39 859 25.37 -2.6 27.3 69 -7.5 18.5 -92.6 -3.646
10:11 1029 30.39 859 25.37 -2.4 27.6 66 -7.9 17.7 -92.6 -3.646
10:12 1029 30.39 859 25.37 -2.3 27.8 67 -7.7 18.1 -92.6 -3.646
10:13 1029 30.39 859 25.37 -2.2 28 66 -7.7 18.1 -92.6 -3.646
10:14 1029 30.39 859 25.37 -2.2 28 66 -7.7 18.1 -92.6 -3.646
10:15 1029 30.39 859 25.37 -2.2 28.1 66 -7.6 18.3 -92.6 -3.646
10:16 1029 30.39 859 25.37 -2.1 28.2 65 -7.7 18.1 -92.6 -3.646
10:17 1029 30.39 859 25.37 -2 28.4 66 -7.6 18.3 -92.6 -3.646
10:18 1029 30.39 859 25.37 -2 28.5 63 -8 17.6 -92.6 -3.646
10:19 1029 30.39 859 25.37 -2 28.4 63 -8.2 17.2 -92.6 -3.646
10:20 1029 30.39 859 25.37 -2 28.5 64 -7.8 17.9 -92.6 -3.646
10:21 1029 30.39 859 25.37 -2 28.5 64 -8 17.6 -92.6 -3.646
10:22 1029 30.39 859 25.37 -2 28.4 62 -8.3 17.1 -92.6 -3.646
10:23 1029 30.39 859 25.37 -2 28.4 63 -8.1 17.5 -92.6 -3.646
10:24 1030 30.42 859 25.37 -2 28.4 64 -7.9 17.7 -92.6 -3.646
10:25 1029 30.39 859 25.37 -2 28.4 63 -8.2 17.2 -92.6 -3.646
10:26 1029 30.39 859 25.37 -2.1 28.3 63 -8.3 17.1 -92.6 -3.646
10:27 1029 30.39 859 25.37 -2.1 28.3 62 -8.4 16.9 -92.6 -3.646
10:28 1030 30.42 859 25.37 -2.1 28.3 65 -7.8 17.9 -92.6 -3.646
10:29 1030 30.42 859 25.37 -2 28.3 64 -8 17.7 -92.6 -3.646
10:30 1030 30.42 859 25.37 -2 28.4 64 -8 17.6 -92.6 -3.646
10:31 1030 30.42 859 25.37 -2 28.4 65 -7.8 18 -92.6 -3.646
10:32 1030 30.42 859 25.37 -2 28.4 64 -8 17.7 -92.6 -3.646
10:33 1030 30.42 859 25.37 -2 28.4 65 -7.8 18 -92.5 -3.642
10:34 1030 30.42 859 25.37 -2 28.4 62 -8.3 17.1 -92.5 -3.642
10:35 1030 30.42 859 25.37 -2 28.4 62 -8.3 17.1 -92.5 -3.642
10:36 1030 30.42 859 25.37 -2 28.4 64 -7.9 17.8 -92.5 -3.642
10:37 1030 30.42 859 25.37 -2 28.4 65 -7.8 18 -92.5 -3.642
10:38 1030 30.42 859 25.37 -2 28.5 65 -7.7 18.1 -92.5 -3.642
10:39 1030 30.42 859 25.37 -1.9 28.5 65 -7.6 18.3 -92.5 -3.642
10:40 1030 30.42 859 25.37 -1.9 28.6 64 -7.7 18.1 -92.5 -3.642
10:41 1030 30.42 859 25.37 -1.8 28.7 64 -7.7 18.2 -92.5 -3.642
10:42 1030 30.42 859 25.37 -1.8 28.7 64 -7.7 18.2 -92.5 -3.642
10:43 1030 30.42 859 25.37 -1.7 28.9 65 -7.4 18.6 -92.5 -3.642
10:44 1030 30.42 859 25.37 -1.7 29 62 -8.1 17.4 -92.5 -3.642
10:45 1030 30.42 859 25.37 -1.6 29.1 63 -7.8 18 -92.5 -3.642
10:46 1030 30.42 859 25.37 -1.6 29 63 -7.7 18.1 -92.5 -3.642
10:47 1030 30.42 859 25.37 -1.6 29.1 63 -7.7 18.1 -92.5 -3.642
10:48 1030 30.42 859 25.37 -1.6 29.1 63 -7.6 18.2 -92.5 -3.642
10:49 1030 30.42 859 25.37 -1.6 29.2 65 -7.4 18.7 -92.5 -3.642
10:50 1030 30.42 859 25.37 -1.5 29.3 64 -7.4 18.8 -92.5 -3.642
10:51 1030 30.42 859 25.37 -1.4 29.4 64 -7.3 18.8 -92.5 -3.642
10:52 1030 30.42 859 25.37 -1.4 29.6 64 -7.4 18.7 -92.5 -3.642
10:53 1030 30.42 859 25.37 -1.3 29.6 65 -7.2 19.1 -92.5 -3.642
10:54 1030 30.42 859 25.37 -1.3 29.6 63 -7.5 18.4 -92.5 -3.642
10:55 1030 30.42 859 25.37 -1.2 29.8 63 -7.3 18.8 -92.5 -3.642
10:56 1030 30.42 859 25.37 -1.2 29.9 61 -7.7 18.2 -92.5 -3.642
10:57 1030 30.42 859 25.37 -1.1 30 64 -7.1 19.2 -92.5 -3.642
10:58 1030 30.42 859 25.37 -1.1 30 62 -7.6 18.4 -92.5 -3.642
10:59 1030 30.42 859 25.37 -1 30.1 63 -7.3 18.9 -92.5 -3.642
11:00 1030 30.42 859 25.37 -1 30.2 62 -7.4 18.8 -92.5 -3.642
11:01 1030 30.42 859 25.37 -0.9 30.3 61 -7.5 18.4 -92.5 -3.642
11:02 1030 30.42 859 25.37 -0.9 30.4 62 -7.3 18.8 -92.5 -3.642
11:03 1030 30.42 859 25.37 -1 30.3 61 -7.6 18.4 -92.5 -3.642
11:04 1030 30.42 859 25.37 -1 30.2 61 -7.5 18.5 -92.4 -3.638
11:05 1030 30.42 859 25.37 -1 30.1 62 -7.4 18.6 -92.4 -3.638
11:06 1030 30.42 859 25.37 -1 30.2 62 -7.4 18.7 -92.4 -3.638
11:07 1030 30.42 859 25.37 -1 30.2 62 -7.4 18.7 -92.4 -3.638
11:08 1030 30.42 859 25.37 -0.9 30.4 61 -7.5 18.4 -92.4 -3.638
11:09 1030 30.42 859 25.37 -0.9 30.4 59 -7.8 18 -92.4 -3.638
11:10 1030 30.42 859 25.37 -0.8 30.5 61 -7.4 18.6 -92.4 -3.638
11:11 1030 30.42 859 25.37 -0.8 30.6 61 -7.4 18.7 -92.4 -3.638
11:12 1030 30.42 859 25.37 -0.7 30.7 60 -7.5 18.5 -92.4 -3.638
11:13 1030 30.42 859 25.37 -0.7 30.8 60 -7.4 18.7 -92.4 -3.638
11:14 1030 30.42 859 25.37 -0.6 30.9 58 -7.9 17.8 -92.4 -3.638
11:15 1030 30.42 859 25.37 -0.6 31 59 -7.7 18.1 -92.4 -3.638
11:16 1029 30.39 859 25.37 -0.6 31 59 -7.5 18.4 -92.4 -3.638
11:17 1029 30.39 859 25.37 -0.6 30.9 60 -7.4 18.7 -92.4 -3.638
11:18 1029 30.39 859 25.37 -0.6 30.9 59 -7.6 18.3 -92.4 -3.638
11:19 1029 30.39 859 25.37 -0.7 30.8 61 -7.2 19 -92.4 -3.638
11:20 1029 30.39 859 25.37 -0.7 30.8 60 -7.5 18.4 -92.4 -3.638
11:21 1029 30.39 859 25.37 -0.7 30.8 60 -7.4 18.6 -92.4 -3.638
11:22 1029 30.39 859 25.37 -0.7 30.8 59 -7.6 18.3 -92.4 -3.638
11:23 1029 30.39 859 25.37 -0.7 30.8 59 -7.7 18.1 -92.4 -3.638
11:24 1029 30.39 858 25.34 -0.5 31.1 58 -7.8 18 -92.4 -3.638
11:25 1029 30.39 858 25.34 -0.5 31.1 58 -7.8 17.9 -92.4 -3.638
11:26 1029 30.39 858 25.34 -0.5 31.1 59 -7.6 18.3 -92.4 -3.638
11:27 1029 30.39 858 25.34 -0.5 31.1 59 -7.6 18.3 -92.4 -3.638
11:28 1029 30.39 858 25.34 -0.4 31.2 59 -7.5 18.5 -92.4 -3.638
11:29 1029 30.39 858 25.34 -0.4 31.2 61 -7.1 19.3 -92.3 -3.634
11:30 1029 30.39 858 25.34 -0.4 31.2 60 -7.3 18.8 -92.3 -3.634
11:31 1029 30.39 858 25.34 -0.4 31.3 62 -6.9 19.6 -92.3 -3.634
11:32 1029 30.39 858 25.34 -0.3 31.5 62 -6.8 19.8 -92.3 -3.634
11:33 1029 30.39 858 25.34 -0.2 31.6 61 -6.9 19.7 -92.3 -3.634
11:34 1029 30.39 858 25.34 -0.2 31.7 59 -7.2 19.1 -92.3 -3.634
11:35 1029 30.39 858 25.34 -0.2 31.7 61 -6.7 20 -92.3 -3.634
11:36 1029 30.39 858 25.34 -0 31.9 59 -7.2 19.1 -92.3 -3.634
11:37 1029 30.39 858 25.34 -0.1 31.9 60 -6.9 19.6 -92.3 -3.634
11:38 1029 30.39 858 25.34 0 32 59 -7.2 19.1 -92.3 -3.634
11:39 1029 30.39 858 25.34 0 32.1 57 -7.5 18.6 -92.3 -3.634
11:40 1029 30.39 858 25.34 0.1 32.1 57 -7.5 18.6 -92.3 -3.634
11:41 1029 30.39 858 25.34 0.1 32.1 56 -7.8 18 -92.3 -3.634
11:42 1029 30.39 858 25.34 0.1 32.2 58 -7.2 19 -92.3 -3.634
11:43 1029 30.39 858 25.34 0.1 32.2 58 -7.1 19.2 -92.3 -3.634
11:44 1029 30.39 858 25.34 0.1 32.2 58 -7.2 19.1 -92.3 -3.634
11:45 1029 30.39 858 25.34 0.2 32.3 58 -7.1 19.2 -92.3 -3.634
11:46 1029 30.39 858 25.34 0.2 32.3 60 -6.8 19.8 -92.3 -3.634
11:47 1029 30.39 858 25.34 0.2 32.3 57 -7.3 18.8 -92.3 -3.634
11:48 1029 30.39 858 25.34 0.2 32.3 58 -7.1 19.2 -92.3 -3.634
11:49 1029 30.39 858 25.34 0.2 32.4 56 -7.5 18.5 -92.3 -3.634
11:50 1029 30.39 858 25.34 0.2 32.3 58 -7.2 19 -92.3 -3.634
11:51 1029 30.39 858 25.34 0.1 32.2 57 -7.3 18.8 -92.3 -3.634
11:52 1029 30.39 858 25.34 0.1 32.2 59 -6.9 19.5 -92.3 -3.634
11:53 1029 30.39 858 25.34 0.2 32.3 59 -7 19.5 -92.3 -3.634
11:54 1029 30.39 858 25.34 0.1 32.3 58 -7.2 19 -92.3 -3.634
11:55 1029 30.39 858 25.34 0.2 32.4 56 -7.5 18.4 -92.3 -3.634
11:56 1029 30.39 858 25.34 0.3 32.5 58 -7.1 19.2 -92.3 -3.634
11:57 1029 30.39 858 25.34 0.3 32.6 56 -7.4 18.6 -92.2 -3.63
11:58 1029 30.39 858 25.34 0.4 32.7 55 -7.6 18.3 -92.2 -3.63
11:59 1029 30.39 858 25.34 0.4 32.8 56 -7.3 18.8 -92.2 -3.63
12:00 1029 30.39 858 25.34 0.5 32.9 56 -7.2 19.1 -92.2 -3.63
12:01 1029 30.39 858 25.34 0.6 33.1 55 -7.4 18.8 -92.2 -3.63
12:02 1029 30.39 858 25.34 0.7 33.3 56 -7.2 19.1 -92.2 -3.63
12:03 1029 30.39 858 25.34 0.9 33.6 54 -7.4 18.6 -92.2 -3.63
12:04 1029 30.39 858 25.34 1 33.7 52 -7.7 18.1 -92.2 -3.63
12:05 1029 30.39 858 25.34 1 33.8 53 -7.5 18.4 -92.2 -3.63
12:06 1029 30.39 858 25.34 0.9 33.7 54 -7.3 18.8 -92.2 -3.63
12:07 1029 30.39 858 25.34 0.9 33.6 54 -7.5 18.6 -92.2 -3.63
12:08 1029 30.39 858 25.34 0.9 33.6 55 -7.2 19 -92.2 -3.63
12:09 1029 30.39 858 25.34 0.8 33.5 54 -7.5 18.4 -92.2 -3.63
12:10 1029 30.39 858 25.34 0.9 33.6 54 -7.4 18.6 -92.2 -3.63
12:11 1029 30.39 858 25.34 0.9 33.6 55 -7.2 19.1 -92.2 -3.63
12:12 1029 30.39 858 25.34 0.9 33.5 53 -7.7 18.1 -92.2 -3.63
12:13 1029 30.39 858 25.34 0.9 33.6 54 -7.5 18.5 -92.2 -3.63
12:14 1029 30.39 858 25.34 0.8 33.5 54 -7.4 18.7 -92.2 -3.63
12:15 1029 30.39 858 25.34 0.9 33.7 53 -7.5 18.4 -92.2 -3.63
12:16 1029 30.39 858 25.34 1 33.7 53 -7.6 18.3 -92.2 -3.63
12:17 1029 30.39 858 25.34 0.9 33.7 53 -7.7 18.2 -92.2 -3.63
12:18 1029 30.39 858 25.34 0.9 33.7 54 -7.4 18.8 -92.2 -3.63
12:19 1029 30.39 858 25.34 0.9 33.7 55 -7 19.4 -92.2 -3.63
12:20 1029 30.39 858 25.34 1 33.7 54 -7.3 18.9 -92.2 -3.63
12:21 1029 30.39 858 25.34 1 33.7 54 -7.4 18.6 -92.2 -3.63
12:22 1029 30.39 858 25.34 0.9 33.7 56 -6.8 19.8 -92.2 -3.63
12:23 1029 30.39 858 25.34 0.9 33.6 57 -6.8 19.8 -92.2 -3.63
12:24 1029 30.39 858 25.34 1 33.8 57 -6.6 20.1 -92.2 -3.63
12:25 1029 30.39 858 25.34 0.9 33.7 55 -7 19.3 -92.2 -3.63
12:26 1029 30.39 858 25.34 0.8 33.5 57 -6.9 19.6 -92.2 -3.63
12:27 1029 30.39 858 25.34 0.7 33.3 55 -7.3 18.8 -92.2 -3.63
12:28 1029 30.39 858 25.34 0.6 33.1 56 -7.2 19 -92.2 -3.63
12:29 1029 30.39 858 25.34 0.6 33 57 -7 19.4 -92.2 -3.63
12:30 1029 30.39 858 25.34 0.6 33.1 60 -6.3 20.6 -92.2 -3.63
12:31 1029 30.39 858 25.34 0.7 33.2 57 -7 19.4 -92.2 -3.63
12:32 1029 30.39 858 25.34 0.7 33.2 59 -6.4 20.4 -92.2 -3.63
12:33 1029 30.39 858 25.34 0.7 33.3 59 -6.4 20.5 -92.2 -3.63
12:34 1029 30.39 858 25.34 0.8 33.4 57 -6.7 19.9 -92.1 -3.626
12:35 1029 30.39 858 25.34 0.8 33.4 56 -7.1 19.3 -92.1 -3.626
12:36 1029 30.39 858 25.34 0.8 33.4 56 -7 19.4 -92.1 -3.626
12:37 1029 30.39 858 25.34 0.7 33.3 60 -6.1 20.9 -92.1 -3.626
12:38 1029 30.39 858 25.34 0.8 33.4 56 -7.1 19.3 -92.1 -3.626
12:39 1029 30.39 858 25.34 0.7 33.2 56 -7.1 19.2 -92.1 -3.626
12:40 1029 30.39 858 25.34 0.6 33 58 -6.8 19.8 -92.1 -3.626
12:41 1029 30.39 858 25.34 0.6 33.2 58 -6.6 20.1 -92.1 -3.626
12:42 1029 30.39 858 25.34 0.6 33.2 57 -7 19.4 -92.1 -3.626
12:43 1029 30.39 858 25.34 0.7 33.2 55 -7.4 18.8 -92.1 -3.626
12:44 1029 30.39 858 25.34 0.7 33.2 57 -7 19.4 -92.1 -3.626
12:45 1029 30.39 858 25.34 0.7 33.3 55 -7.2 19 -92.1 -3.626
12:46 1029 30.39 858 25.34 0.7 33.3 57 -6.8 19.8 -92.1 -3.626
12:47 1029 30.39 858 25.34 0.8 33.5 56 -7 19.4 -92.1 -3.626
12:48 1029 30.39 858 25.34 0.8 33.5 56 -7 19.5 -92.1 -3.626
12:49 1029 30.39 858 25.34 0.9 33.5 56 -7 19.4 -92.1 -3.626
12:50 1029 30.39 858 25.34 0.8 33.5 56 -6.9 19.6 -92 -3.622
12:51 1029 30.39 858 25.34 0.9 33.6 57 -6.6 20.1 -92 -3.622
12:52 1029 30.39 858 25.34 0.9 33.5 57 -6.7 19.9 -92 -3.622
12:53 1029 30.39 858 25.34 0.9 33.6 58 -6.4 20.5 -92 -3.622
12:54 1029 30.39 858 25.34 0.8 33.5 57 -6.8 19.7 -92 -3.622
12:55 1029 30.39 858 25.34 0.8 33.5 58 -6.6 20.1 -92 -3.622
12:56 1029 30.39 858 25.34 0.9 33.6 57 -6.7 20 -92 -3.622
12:57 1029 30.39 858 25.34 0.9 33.6 56 -6.8 19.7 -92 -3.622
12:58 1029 30.39 858 25.34 0.9 33.6 57 -6.8 19.8 -92 -3.622
12:59 1029 30.39 858 25.34 0.9 33.6 59 -6.3 20.6 -92 -3.622
13:00 1029 30.39 858 25.34 0.9 33.6 57 -6.7 19.9 -92 -3.622
13:01 1029 30.39 858 25.34 0.9 33.6 58 -6.4 20.4 -92 -3.622
13:02 1029 30.39 858 25.34 0.8 33.5 57 -6.9 19.7 -92 -3.622
13:03 1029 30.39 858 25.34 0.8 33.4 57 -6.8 19.8 -92 -3.622
13:04 1029 30.39 858 25.34 0.7 33.3 57 -6.9 19.6 -92 -3.622
13:05 1029 30.39 858 25.34 0.7 33.3 58 -6.6 20 -92 -3.622
13:06 1029 30.39 858 25.34 0.8 33.4 56 -7.1 19.2 -92 -3.622
13:07 1029 30.39 858 25.34 0.7 33.3 57 -6.9 19.5 -92 -3.622
13:08 1029 30.39 858 25.34 0.8 33.4 56 -7 19.3 -92 -3.622
13:09 1029 30.39 858 25.34 0.8 33.4 56 -7.1 19.2 -92 -3.622
13:10 1029 30.39 858 25.34 0.8 33.4 55 -7.2 19.1 -92 -3.622
13:11 1029 30.39 858 25.34 0.8 33.4 55 -7.3 18.9 -92 -3.622
13:12 1029 30.39 858 25.34 0.8 33.4 57 -6.8 19.8 -91.9 -3.618
13:13 1029 30.39 858 25.34 0.8 33.5 56 -7 19.5 -91.9 -3.618
13:14 1029 30.39 858 25.34 0.9 33.6 54 -7.4 18.7 -91.9 -3.618
13:15 1029 30.39 858 25.34 0.9 33.5 55 -7.2 19 -91.9 -3.618
13:16 1028 30.36 858 25.34 0.8 33.5 54 -7.5 18.5 -91.9 -3.618
13:17 1029 30.39 858 25.34 0.8 33.4 54 -7.4 18.7 -91.9 -3.618
13:18 1029 30.39 858 25.34 0.8 33.4 54 -7.5 18.6 -91.9 -3.618
13:19 1029 30.39 858 25.34 0.8 33.4 52 -7.8 17.9 -91.9 -3.618
13:20 1029 30.39 858 25.34 0.9 33.5 55 -7.2 19 -91.9 -3.618
13:21 1029 30.39 858 25.34 0.9 33.7 53 -7.6 18.4 -91.9 -3.618
13:22 1029 30.39 858 25.34 0.9 33.7 52 -7.9 17.8 -91.9 -3.618
13:23 1029 30.39 858 25.34 0.9 33.6 53 -7.8 18 -91.9 -3.618
13:24 1029 30.39 858 25.34 0.9 33.7 51 -8 17.6 -91.9 -3.618
13:25 1029 30.39 858 25.34 0.9 33.7 55 -7.2 19 -91.9 -3.618
13:26 1029 30.39 858 25.34 1 33.8 53 -7.5 18.6 -91.9 -3.618
13:27 1029 30.39 858 25.34 1 33.7 54 -7.2 19 -91.9 -3.618
13:28 1029 30.39 858 25.34 1 33.7 51 -8 17.6 -91.9 -3.618
13:29 1029 30.39 858 25.34 1 33.7 54 -7.3 18.8 -91.9 -3.618
13:30 1029 30.39 858 25.34 0.9 33.7 54 -7.3 18.8 -91.9 -3.618
13:31 1029 30.39 858 25.34 0.9 33.7 50 -8.4 16.9 -91.9 -3.618
13:32 1029 30.39 858 25.34 1 33.7 53 -7.5 18.4 -91.9 -3.618
13:33 1029 30.39 858 25.34 1 33.8 51 -7.9 17.7 -91.9 -3.618
13:34 1029 30.39 858 25.34 1 33.8 49 -8.5 16.7 -91.9 -3.618
13:35 1029 30.39 858 25.34 1 33.7 50 -8.4 16.8 -91.9 -3.618
13:36 1029 30.39 858 25.34 1 33.7 52 -7.8 18 -91.9 -3.618
13:37 1029 30.39 858 25.34 1 33.7 51 -8.2 17.3 -91.9 -3.618
13:38 1029 30.39 858 25.34 0.9 33.7 55 -7.2 19 -91.9 -3.618
13:39 1029 30.39 858 25.34 0.9 33.7 52 -7.8 17.9 -91.9 -3.618
13:40 1029 30.39 858 25.34 0.9 33.7 53 -7.6 18.3 -91.9 -3.618
13:41 1029 30.39 858 25.34 0.9 33.7 52 -7.9 17.8 -91.9 -3.618
13:42 1029 30.39 858 25.34 0.9 33.7 52 -7.9 17.8 -91.9 -3.618
13:43 1029 30.39 858 25.34 0.9 33.7 54 -7.3 18.9 -91.9 -3.618
13:44 1029 30.39 858 25.34 0.9 33.7 54 -7.4 18.7 -91.9 -3.618
13:45 1029 30.39 858 25.34 0.9 33.6 53 -7.5 18.5 -91.9 -3.618
13:46 1029 30.39 858 25.34 0.9 33.7 53 -7.5 18.5 -91.9 -3.618
13:47 1029 30.39 858 25.34 0.9 33.7 53 -7.7 18.1 -91.9 -3.618
13:48 1029 30.39 858 25.34 0.9 33.7 55 -7.2 19.1 -91.9 -3.618
13:49 1029 30.39 858 25.34 0.9 33.6 55 -7.2 19.1 -91.9 -3.618
13:50 1029 30.39 858 25.34 0.9 33.6 54 -7.4 18.8 -91.9 -3.618
13:51 1029 30.39 858 25.34 0.9 33.6 53 -7.6 18.3 -91.9 -3.618
13:52 1029 30.39 858 25.34 0.9 33.6 54 -7.3 18.8 -91.9 -3.618
13:53 1029 30.39 858 25.34 0.9 33.6 54 -7.4 18.7 -91.9 -3.618
13:54 1029 30.39 858 25.34 0.9 33.6 54 -7.4 18.7 -91.9 -3.618
13:55 1029 30.39 858 25.34 0.9 33.7 54 -7.3 18.9 -91.9 -3.618
13:56 1029 30.39 858 25.34 0.9 33.7 56 -7 19.4 -91.9 -3.618
13:57 1029 30.39 858 25.34 0.9 33.7 53 -7.5 18.5 -91.9 -3.618
13:58 1029 30.39 858 25.34 0.9 33.7 53 -7.6 18.3 -91.9 -3.618
13:59 1029 30.39 858 25.34 0.9 33.6 52 -7.8 18 -91.9 -3.618
14:00 1029 30.39 858 25.34 0.9 33.7 54 -7.3 18.8 -91.9 -3.618
14:01 1029 30.39 858 25.34 0.9 33.7 54 -7.3 18.8 -91.9 -3.618
14:02 1029 30.39 858 25.34 1 33.7 56 -6.9 19.6 -91.9 -3.618
14:03 1029 30.39 858 25.34 0.9 33.7 57 -6.8 19.8 -91.9 -3.618
14:04 1029 30.39 858 25.34 0.9 33.6 57 -6.6 20.1 -91.9 -3.618
14:05 1029 30.39 858 25.34 0.9 33.7 53 -7.5 18.5 -91.9 -3.618
14:06 1029 30.39 858 25.34 1 33.7 55 -7.1 19.3 -91.9 -3.618
14:07 1029 30.39 858 25.34 0.9 33.7 55 -7.2 19 -91.9 -3.618
14:08 1029 30.39 858 25.34 0.9 33.7 53 -7.5 18.5 -91.9 -3.618
14:09 1029 30.39 858 25.34 1 33.8 55 -7 19.4 -91.9 -3.618
14:10 1029 30.39 858 25.34 0.9 33.7 54 -7.4 18.6 -91.9 -3.618
14:11 1029 30.39 858 25.34 1 33.8 54 -7.4 18.7 -91.9 -3.618
14:12 1029 30.39 858 25.34 1 33.8 54 -7.3 18.8 -91.9 -3.618
14:13 1029 30.39 858 25.34 1 33.7 53 -7.6 18.3 -91.9 -3.618
14:14 1029 30.39 858 25.34 1 33.8 53 -7.6 18.3 -91.9 -3.618
14:15 1029 30.39 858 25.34 1 33.8 53 -7.5 18.5 -91.9 -3.618
14:16 1029 30.39 858 25.34 1 33.8 53 -7.6 18.3 -91.9 -3.618
14:17 1029 30.39 858 25.34 1 33.7 53 -7.5 18.4 -91.9 -3.618
14:18 1029 30.39 858 25.34 1 33.8 53 -7.5 18.5 -91.9 -3.618
14:19 1029 30.39 858 25.34 1 33.8 52 -7.7 18.2 -91.9 -3.618
14:20 1029 30.39 858 25.34 1.1 33.9 53 -7.5 18.6 -91.9 -3.618
14:21 1029 30.39 858 25.34 1.1 33.9 54 -7.1 19.2 -91.9 -3.618
14:22 1029 30.39 858 25.34 1.1 34 54 -7.2 19.1 -91.9 -3.618
14:23 1029 30.39 858 25.34 1.1 33.9 55 -7 19.3 -91.9 -3.618
14:24 1029 30.39 858 25.34 1.1 34 53 -7.5 18.4 -91.9 -3.618
14:25 1029 30.39 858 25.34 1.1 34 55 -7 19.3 -91.9 -3.618
14:26 1029 30.39 858 25.34 1.1 34 53 -7.3 18.8 -91.9 -3.618
14:27 1029 30.39 858 25.34 1.1 34 52 -7.7 18.1 -91.9 -3.618
14:28 1029 30.39 858 25.34 1.1 34 52 -7.6 18.3 -91.9 -3.618
14:29 1029 30.39 858 25.34 1.1 33.9 52 -7.9 17.9 -91.9 -3.618
14:30 1029 30.39 858 25.34 1.1 33.9 52 -7.7 18.1 -91.9 -3.618
14:31 1029 30.39 858 25.34 1.1 33.9 53 -7.6 18.3 -91.9 -3.618
14:32 1029 30.39 858 25.34 1.1 33.9 54 -7.3 18.9 -91.9 -3.618
14:33 1029 30.39 858 25.34 1.1 34 54 -7.2 19 -91.9 -3.618
14:34 1029 30.39 858 25.34 1.1 34 55 -7 19.4 -91.9 -3.618
14:35 1029 30.39 858 25.34 1.1 34 54 -7.2 19 -91.9 -3.618
14:36 1029 30.39 858 25.34 1.2 34.1 52 -7.6 18.4 -91.9 -3.618
14:37 1029 30.39 858 25.34 1.2 34.1 52 -7.7 18.2 -91.9 -3.618
14:38 1029 30.39 858 25.34 1.2 34.2 50 -8 17.6 -91.9 -3.618
14:39 1029 30.39 858 25.34 1.2 34.2 50 -8 17.6 -91.9 -3.618
14:40 1029 30.39 858 25.34 1.2 34.2 52 -7.5 18.4 -91.9 -3.618
14:41 1029 30.39 858 25.34 1.2 34.2 51 -7.9 17.8 -91.9 -3.618
14:42 1029 30.39 858 25.34 1.2 34.2 51 -8 17.7 -91.9 -3.618
14:43 1029 30.39 858 25.34 1.2 34.1 48 -8.6 16.6 -91.9 -3.618
14:44 1029 30.39 858 25.34 1.2 34.1 51 -7.8 18 -91.9 -3.618
14:45 1029 30.39 858 25.34 1.2 34.1 52 -7.6 18.4 -91.9 -3.618
14:46 1029 30.39 858 25.34 1.2 34.2 50 -8 17.6 -91.9 -3.618
14:47 1029 30.39 858 25.34 1.2 34.2 51 -7.9 17.8 -91.9 -3.618
14:48 1029 30.39 858 25.34 1.2 34.2 52 -7.6 18.4 -91.9 -3.618
14:49 1029 30.39 858 25.34 1.2 34.1 54 -7.2 19.1 -91.9 -3.618
14:50 1029 30.39 858 25.34 1.2 34.2 53 -7.4 18.7 -91.9 -3.618
14:51 1029 30.39 858 25.34 1.2 34.2 53 -7.4 18.8 -91.9 -3.618
14:52 1029 30.39 858 25.34 1.2 34.2 51 -7.7 18.1 -91.9 -3.618
14:53 1029 30.39 858 25.34 1.2 34.2 52 -7.5 18.5 -91.9 -3.618
14:54 1029 30.39 858 25.34 1.2 34.2 52 -7.6 18.2 -91.9 -3.618
14:55 1029 30.39 858 25.34 1.3 34.3 54 -7.1 19.2 -91.9 -3.618
14:56 1029 30.39 858 25.34 1.3 34.4 50 -8.1 17.4 -91.9 -3.618
14:57 1029 30.39 858 25.34 1.3 34.4 53 -7.3 18.9 -91.8 -3.614
14:58 1029 30.39 858 25.34 1.4 34.5 52 -7.4 18.6 -91.8 -3.614
14:59 1029 30.39 858 25.34 1.4 34.6 52 -7.4 18.7 -91.8 -3.614
15:00 1029 30.39 858 25.34 1.5 34.6 52 -7.3 18.9 -91.8 -3.614
15:01 1029 30.39 858 25.34 1.5 34.7 53 -7.1 19.3 -91.8 -3.614
15:02 1029 30.39 858 25.34 1.6 34.8 53 -7 19.3 -91.8 -3.614
15:03 1029 30.39 858 25.34 1.6 34.8 52 -7.2 19.1 -91.8 -3.614
15:04 1029 30.39 858 25.34 1.5 34.8 53 -7.1 19.3 -91.8 -3.614
15:05 1029 30.39 858 25.34 1.5 34.7 53 -7 19.4 -91.8 -3.614
15:06 1029 30.39 858 25.34 1.5 34.6 54 -6.9 19.5 -91.8 -3.614
15:07 1029 30.39 858 25.34 1.4 34.6 54 -6.9 19.6 -91.8 -3.614
15:08 1029 30.39 858 25.34 1.4 34.6 55 -6.6 20.1 -91.8 -3.614
15:09 1029 30.39 858 25.34 1.4 34.5 54 -7 19.4 -91.8 -3.614
15:10 1029 30.39 858 25.34 1.4 34.5 54 -6.9 19.6 -91.8 -3.614
15:11 1029 30.39 858 25.34 1.4 34.4 57 -6.3 20.6 -91.8 -3.614
15:12 1029 30.39 858 25.34 1.4 34.5 56 -6.5 20.3 -91.8 -3.614
15:13 1029 30.39 858 25.34 1.3 34.4 54 -7 19.5 -91.8 -3.614
15:14 1029 30.39 858 25.34 1.3 34.3 57 -6.2 20.8 -91.8 -3.614
15:15 1029 30.39 858 25.34 1.2 34.1 59 -6.1 21.1 -91.8 -3.614
15:16 1029 30.39 858 25.34 1.2 34.1 59 -6 21.1 -91.8 -3.614
15:17 1029 30.39 858 25.34 1.1 34.1 56 -6.6 20.1 -91.8 -3.614
15:18 1029 30.39 858 25.34 1.1 34 59 -6.1 21.1 -91.8 -3.614
15:19 1029 30.39 858 25.34 1.1 33.9 59 -6 21.2 -91.8 -3.614
15:20 1029 30.39 858 25.34 1 33.9 60 -5.9 21.3 -91.8 -3.614
15:21 1029 30.39 858 25.34 1.1 33.9 59 -6.1 21 -91.8 -3.614
15:22 1029 30.39 858 25.34 1 33.9 60 -5.9 21.5 -91.8 -3.614
15:23 1029 30.39 858 25.34 1.1 33.9 59 -6 21.2 -91.7 -3.61
15:24 1029 30.39 858 25.34 1.1 34 61 -5.6 21.9 -91.7 -3.61
15:25 1029 30.39 858 25.34 1.1 34 60 -5.7 21.7 -91.7 -3.61
15:26 1029 30.39 858 25.34 1.2 34.1 57 -6.5 20.2 -91.7 -3.61
15:27 1029 30.39 858 25.34 1.2 34.1 57 -6.5 20.3 -91.7 -3.61
15:28 1029 30.39 858 25.34 1.3 34.3 56 -6.7 20 -91.7 -3.61
15:29 1029 30.39 858 25.34 1.3 34.3 55 -6.7 19.9 -91.7 -3.61
15:30 1029 30.39 858 25.34 1.3 34.4 58 -6.1 21 -91.7 -3.61
15:31 1029 30.39 858 25.34 1.3 34.3 55 -6.7 20 -91.7 -3.61
15:32 1029 30.39 858 25.34 1.3 34.3 56 -6.6 20.1 -91.7 -3.61
15:33 1029 30.39 858 25.34 1.2 34.2 55 -6.9 19.6 -91.7 -3.61
15:34 1029 30.39 858 25.34 1.2 34.2 56 -6.6 20.1 -91.7 -3.61
15:35 1029 30.39 858 25.34 1.2 34.1 57 -6.3 20.6 -91.7 -3.61
15:36 1029 30.39 858 25.34 1.2 34.1 57 -6.5 20.3 -91.7 -3.61
15:37 1029 30.39 858 25.34 1.2 34.1 57 -6.5 20.2 -91.7 -3.61
15:38 1029 30.39 858 25.34 1.2 34.1 57 -6.4 20.4 -91.7 -3.61
15:39 1029 30.39 858 25.34 1.1 34 55 -6.8 19.7 -91.7 -3.61
15:40 1029 30.39 858 25.34 1.1 34.1 56 -6.6 20.2 -91.7 -3.61
15:41 1029 30.39 858 25.34 1.1 34 58 -6.3 20.7 -91.7 -3.61
15:42 1029 30.39 858 25.34 1.1 33.9 58 -6.3 20.7 -91.7 -3.61
15:43 1029 30.39 858 25.34 1.1 33.9 58 -6.2 20.9 -91.7 -3.61
15:44 1029 30.39 858 25.34 1.1 33.9 58 -6.2 20.8 -91.7 -3.61
15:45 1029 30.39 858 25.34 1 33.8 58 -6.3 20.6 -91.7 -3.61
15:46 1029 30.39 858 25.34 1 33.8 58 -6.4 20.5 -91.7 -3.61
15:47 1029 30.39 858 25.34 1 33.8 59 -6.2 20.9 -91.7 -3.61
15:48 1029 30.39 858 25.34 1 33.7 60 -6.1 21.1 -91.7 -3.61
15:49 1029 30.39 858 25.34 1 33.7 60 -6 21.1 -91.7 -3.61
15:50 1029 30.39 858 25.34 0.9 33.7 59 -6.1 20.9 -91.7 -3.61
15:51 1029 30.39 858 25.34 0.9 33.6 60 -6.1 21 -91.7 -3.61
15:52 1029 30.39 858 25.34 0.9 33.6 60 -6.1 21.1 -91.7 -3.61
15:53 1029 30.39 858 25.34 0.9 33.6 60 -6.1 21 -91.7 -3.61
15:54 1029 30.39 858 25.34 0.8 33.5 60 -6.1 21 -91.7 -3.61
15:55 1029 30.39 858 25.34 0.8 33.5 61 -6 21.3 -91.7 -3.61
15:56 1029 30.39 858 25.34 0.8 33.5 61 -5.9 21.4 -91.7 -3.61
15:57 1029 30.39 858 25.34 0.8 33.5 61 -5.9 21.3 -91.7 -3.61
15:58 1029 30.39 858 25.34 0.8 33.5 60 -6.1 21.1 -91.7 -3.61
15:59 1029 30.39 858 25.34 0.8 33.4 60 -6.2 20.9 -91.7 -3.61
16:00 1029 30.39 858 25.34 0.8 33.5 61 -5.9 21.3 -91.7 -3.61
16:01 1029 30.39 858 25.34 0.8 33.4 60 -6.1 21.1 -91.7 -3.61
16:02 1029 30.39 858 25.34 0.8 33.4 61 -6 21.3 -91.7 -3.61
16:03 1029 30.39 858 25.34 0.8 33.4 61 -5.8 21.5 -91.7 -3.61
16:04 1029 30.39 858 25.34 0.8 33.5 60 -6 21.1 -91.7 -3.61
16:05 1029 30.39 858 25.34 0.8 33.5 60 -6.2 20.9 -91.7 -3.61
16:06 1029 30.39 858 25.34 0.8 33.5 58 -6.5 20.4 -91.7 -3.61
16:07 1029 30.39 858 25.34 0.8 33.4 59 -6.4 20.4 -91.7 -3.61
16:08 1029 30.39 858 25.34 0.8 33.5 61 -5.8 21.6 -91.7 -3.61
16:09 1029 30.39 858 25.34 0.8 33.4 61 -6 21.2 -91.7 -3.61
16:10 1029 30.39 858 25.34 0.7 33.3 62 -5.8 21.5 -91.7 -3.61
16:11 1029 30.39 858 25.34 0.7 33.2 65 -5.1 22.8 -91.7 -3.61
16:12 1029 30.39 858 25.34 0.6 33 61 -6.1 21.1 -91.7 -3.61
16:13 1029 30.39 858 25.34 0.5 33 64 -5.5 22.1 -91.7 -3.61
16:14 1029 30.39 858 25.34 0.5 32.8 65 -5.3 22.5 -91.6 -3.606
16:15 1029 30.39 858 25.34 0.4 32.7 67 -5.1 22.8 -91.6 -3.606
16:16 1029 30.39 858 25.34 0.3 32.6 67 -5.1 22.7 -91.6 -3.606
16:17 1029 30.39 858 25.34 0.2 32.4 66 -5.5 22.2 -91.6 -3.606
16:18 1029 30.39 858 25.34 0.2 32.4 65 -5.6 22 -91.6 -3.606
16:19 1029 30.39 858 25.34 0.2 32.3 65 -5.6 22 -91.6 -3.606
16:20 1029 30.39 858 25.34 0.2 32.3 65 -5.6 22 -91.6 -3.606
16:21 1029 30.39 858 25.34 0.1 32.2 65 -5.6 21.9 -91.6 -3.606
16:22 1029 30.39 858 25.34 0.1 32.2 65 -5.8 21.6 -91.6 -3.606
16:23 1029 30.39 858 25.34 0.1 32.2 64 -6 21.2 -91.6 -3.606
16:24 1029 30.39 858 25.34 0.1 32.1 65 -5.7 21.7 -91.6 -3.606
16:25 1029 30.39 858 25.34 0.1 32.1 65 -5.7 21.8 -91.6 -3.606
16:26 1029 30.39 858 25.34 0 32 66 -5.6 21.8 -91.6 -3.606
16:27 1029 30.39 858 25.34 -0 31.9 67 -5.4 22.3 -91.6 -3.606
16:28 1029 30.39 858 25.34 -0.1 31.8 67 -5.5 22 -91.6 -3.606
16:29 1029 30.39 858 25.34 -0.2 31.7 68 -5.4 22.3 -91.6 -3.606
16:30 1029 30.39 858 25.34 -0.2 31.6 67 -5.6 21.9 -91.6 -3.606
16:31 1029 30.39 858 25.34 -0.2 31.6 66 -5.8 21.6 -91.6 -3.606
16:32 1029 30.39 858 25.34 -0.3 31.5 67 -5.7 21.8 -91.6 -3.606
16:33 1029 30.39 858 25.34 -0.3 31.5 68 -5.6 22 -91.6 -3.606
16:34 1029 30.39 858 25.34 -0.3 31.4 68 -5.5 22.1 -91.6 -3.606
16:35 1029 30.39 858 25.34 -0.4 31.3 68 -5.6 21.9 -91.6 -3.606
16:36 1029 30.39 858 25.34 -0.4 31.2 68 -5.6 22 -91.6 -3.606
16:37 1029 30.39 858 25.34 -0.4 31.2 68 -5.6 22 -91.6 -3.606
16:38 1029 30.39 858 25.34 -0.5 31.2 69 -5.5 22.1 -91.6 -3.606
16:39 1029 30.39 858 25.34 -0.5 31 69 -5.6 22 -91.6 -3.606
16:40 1029 30.39 858 25.34 -0.6 31 68 -5.7 21.8 -91.5 -3.602
16:41 1029 30.39 858 25.34 -0.6 30.9 68 -5.7 21.7 -91.6 -3.606
16:42 1029 30.39 858 25.34 -0.7 30.8 69 -5.7 21.7 -91.5 -3.602
16:43 1029 30.39 858 25.34 -0.7 30.8 69 -5.7 21.7 -91.5 -3.602
16:44 1029 30.39 858 25.34 -0.8 30.6 70 -5.7 21.8 -91.5 -3.602
16:45 1029 30.39 858 25.34 -0.9 30.5 69 -5.9 21.4 -91.5 -3.602
16:46 1029 30.39 858 25.34 -0.8 30.5 69 -5.8 21.6 -91.5 -3.602
16:47 1029 30.39 858 25.34 -0.8 30.5 70 -5.7 21.7 -91.5 -3.602
16:48 1029 30.39 858 25.34 -0.9 30.4 68 -6.1 21.1 -91.5 -3.602
16:49 1029 30.39 858 25.34 -0.9 30.3 68 -6.1 21 -91.5 -3.602
16:50 1029 30.39 858 25.34 -0.9 30.4 67 -6.3 20.7 -91.5 -3.602
16:51 1029 30.39 858 25.34 -0.8 30.5 67 -6.3 20.7 -91.5 -3.602
16:52 1029 30.39 858 25.34 -0.8 30.6 67 -6.1 21 -91.5 -3.602
16:53 1029 30.39 858 25.34 -0.7 30.7 68 -5.9 21.4 -91.5 -3.602
16:54 1029 30.39 858 25.34 -0.8 30.6 69 -5.8 21.5 -91.5 -3.602
16:55 1029 30.39 858 25.34 -0.8 30.5 69 -5.9 21.4 -91.5 -3.602
16:56 1029 30.39 858 25.34 -0.8 30.5 69 -5.9 21.4 -91.5 -3.602
16:57 1029 30.39 858 25.34 -0.9 30.4 68 -6 21.1 -91.5 -3.602
16:58 1029 30.39 858 25.34 -0.9 30.4 68 -6 21.2 -91.5 -3.602
16:59 1029 30.39 858 25.34 -0.9 30.3 69 -5.9 21.3 -91.5 -3.602
17:00 1029 30.39 858 25.34 -1 30.2 69 -6 21.3 -91.5 -3.602
17:01 1029 30.39 858 25.34 -1 30.2 68 -6.2 20.9 -91.5 -3.602
17:02 1029 30.39 858 25.34 -1 30.2 69 -6 21.2 -91.6 -3.606
17:03 1029 30.39 858 25.34 -1 30.3 69 -6 21.2 -91.6 -3.606
17:04 1029 30.39 858 25.34 -1 30.2 68 -6.1 21 -91.6 -3.606
17:05 1029 30.39 858 25.34 -1 30.2 68 -6.2 20.9 -91.6 -3.606
17:06 1029 30.39 858 25.34 -1 30.2 66 -6.6 20.2 -91.6 -3.606
17:07 1029 30.39 858 25.34 -0.9 30.4 67 -6.3 20.7 -91.6 -3.606
17:08 1029 30.39 858 25.34 -0.9 30.4 66 -6.4 20.4 -91.6 -3.606
17:09 1029 30.39 858 25.34 -0.8 30.5 65 -6.7 20 -91.6 -3.606
17:10 1029 30.39 858 25.34 -0.8 30.6 65 -6.5 20.2 -91.6 -3.606
17:11 1029 30.39 858 25.34 -0.7 30.7 66 -6.4 20.5 -91.6 -3.606
17:12 1029 30.39 858 25.34 -0.7 30.7 64 -6.7 20 -91.6 -3.606
17:13 1029 30.39 858 25.34 -0.6 30.9 63 -6.7 19.9 -91.6 -3.606
17:14 1029 30.39 858 25.34 -0.6 30.9 65 -6.4 20.4 -91.6 -3.606
17:15 1029 30.39 858 25.34 -0.6 30.9 68 -5.9 21.4 -91.6 -3.606
17:16 1029 30.39 858 25.34 -0.7 30.7 68 -5.9 21.4 -91.6 -3.606
17:17 1029 30.39 858 25.34 -0.8 30.5 68 -6 21.2 -91.6 -3.606
17:18 1029 30.39 858 25.34 -0.9 30.3 69 -6 21.2 -91.6 -3.606
17:19 1029 30.39 858 25.34 -1 30.2 70 -5.8 21.6 -91.6 -3.606
17:20 1029 30.39 858 25.34 -1.1 30.1 72 -5.4 22.3 -91.6 -3.606
17:21 1029 30.39 858 25.34 -1.2 29.9 74 -5.3 22.5 -91.6 -3.606
17:22 1029 30.39 858 25.34 -1.4 29.6 75 -5.2 22.6 -91.6 -3.606
17:23 1029 30.39 858 25.34 -1.5 29.3 76 -5.2 22.6 -91.5 -3.602
17:24 1029 30.39 858 25.34 -1.6 29.1 76 -5.3 22.5 -91.5 -3.602
17:25 1029 30.39 858 25.34 -1.7 29 77 -5.2 22.6 -91.5 -3.602
17:26 1029 30.39 858 25.34 -1.7 28.9 77 -5.2 22.6 -91.5 -3.602
17:27 1029 30.39 858 25.34 -1.7 28.9 77 -5.2 22.6 -91.5 -3.602
17:28 1029 30.39 858 25.34 -1.8 28.8 78 -5.1 22.8 -91.5 -3.602
17:29 1029 30.39 858 25.34 -1.8 28.8 79 -5 22.9 -91.5 -3.602
17:30 1029 30.39 858 25.34 -1.8 28.8 79 -5 23 -91.4 -3.598
17:31 1029 30.39 858 25.34 -1.8 28.7 79 -4.9 23.1 -91.4 -3.598
17:32 1029 30.39 858 25.34 -1.8 28.7 79 -4.9 23.1 -91.4 -3.598
17:33 1029 30.39 858 25.34 -1.8 28.7 79 -5 22.9 -91.4 -3.598
17:34 1029 30.39 858 25.34 -1.8 28.7 78 -5.2 22.6 -91.4 -3.598
17:35 1029 30.39 858 25.34 -1.8 28.8 76 -5.5 22.1 -91.4 -3.598
17:36 1029 30.39 858 25.34 -1.7 28.9 76 -5.4 22.3 -91.4 -3.598
17:37 1029 30.39 858 25.34 -1.6 29.1 77 -5.1 22.8 -91.4 -3.598
17:38 1029 30.39 858 25.34 -1.6 29.1 75 -5.5 22.1 -91.4 -3.598
17:39 1029 30.39 858 25.34 -1.6 29.1 75 -5.4 22.3 -91.4 -3.598
17:40 1029 30.39 858 25.34 -1.5 29.2 75 -5.5 22.1 -91.4 -3.598
17:41 1029 30.39 858 25.34 -1.5 29.3 75 -5.5 22.2 -91.4 -3.598
17:42 1029 30.39 858 25.34 -1.5 29.3 75 -5.4 22.3 -91.4 -3.598
17:43 1029 30.39 858 25.34 -1.5 29.3 75 -5.3 22.4 -91.5 -3.602
17:44 1029 30.39 858 25.34 -1.5 29.2 76 -5.2 22.6 -91.5 -3.602
17:45 1029 30.39 858 25.34 -1.5 29.2 75 -5.4 22.3 -91.5 -3.602
17:46 1029 30.39 858 25.34 -1.6 29.2 76 -5.3 22.4 -91.5 -3.602
17:47 1029 30.39 858 25.34 -1.5 29.3 76 -5.2 22.6 -91.5 -3.602
17:48 1029 30.39 858 25.34 -1.6 29.2 76 -5.2 22.6 -91.5 -3.602
17:49 1029 30.39 858 25.34 -1.6 29.2 76 -5.2 22.6 -91.4 -3.598
17:50 1029 30.39 858 25.34 -1.6 29.1 76 -5.2 22.6 -91.5 -3.602
17:51 1029 30.39 858 25.34 -1.6 29.1 76 -5.3 22.4 -91.4 -3.598
17:52 1029 30.39 858 25.34 -1.6 29.1 75 -5.4 22.2 -91.5 -3.602
17:53 1029 30.39 858 25.34 -1.6 29.1 74 -5.7 21.7 -91.5 -3.602
17:54 1029 30.39 858 25.34 -1.6 29.2 74 -5.6 21.9 -91.5 -3.602
17:55 1029 30.39 858 25.34 -1.5 29.2 74 -5.6 21.9 -91.5 -3.602
17:56 1029 30.39 858 25.34 -1.5 29.3 73 -5.8 21.5 -91.5 -3.602
17:57 1029 30.39 858 25.34 -1.5 29.4 72 -5.9 21.5 -91.5 -3.602
17:58 1029 30.39 858 25.34 -1.4 29.4 72 -5.8 21.6 -91.5 -3.602
17:59 1029 30.39 858 25.34 -1.4 29.4 72 -5.8 21.5 -91.5 -3.602
18:00 1029 30.39 858 25.34 -1.4 29.5 71 -5.9 21.4 -91.5 -3.602
18:01 1029 30.39 858 25.34 -1.4 29.5 72 -5.8 21.6 -91.5 -3.602
18:02 1029 30.39 858 25.34 -1.4 29.5 71 -6 21.3 -91.6 -3.606
18:03 1029 30.39 858 25.34 -1.4 29.5 70 -6.2 20.8 -91.6 -3.606
18:04 1029 30.39 858 25.34 -1.2 29.8 69 -6.2 20.8 -91.6 -3.606
18:05 1029 30.39 858 25.34 -1.2 29.9 69 -6.2 20.9 -91.6 -3.606
18:06 1029 30.39 858 25.34 -1.1 29.9 68 -6.2 20.8 -91.6 -3.606
18:07 1029 30.39 858 25.34 -1.1 29.9 68 -6.4 20.5 -91.6 -3.606
18:08 1029 30.39 858 25.34 -1.1 30.1 67 -6.3 20.6 -91.6 -3.606
18:09 1029 30.39 858 25.34 -1 30.2 67 -6.3 20.6 -91.6 -3.606
18:10 1029 30.39 858 25.34 -1 30.2 67 -6.3 20.6 -91.6 -3.606
18:11 1029 30.39 858 25.34 -1.1 30.1 67 -6.3 20.6 -91.6 -3.606
18:12 1029 30.39 858 25.34 -1.1 30 68 -6.3 20.7 -91.7 -3.61
18:13 1029 30.39 858 25.34 -1.2 29.8 68 -6.4 20.5 -91.7 -3.61
18:14 1029 30.39 858 25.34 -1.3 29.7 68 -6.5 20.3 -91.7 -3.61
18:15 1029 30.39 858 25.34 -1.3 29.7 67 -6.6 20.1 -91.7 -3.61
18:16 1029 30.39 858 25.34 -1.3 29.7 67 -6.7 20 -91.7 -3.61
18:17 1029 30.39 858 25.34 -1.2 29.8 67 -6.7 20 -91.7 -3.61
18:18 1029 30.39 858 25.34 -1.2 29.8 67 -6.6 20 -91.7 -3.61
18:19 1029 30.39 858 25.34 -1.3 29.7 66 -6.7 19.9 -91.7 -3.61
18:20 1029 30.39 858 25.34 -1.3 29.6 66 -6.8 19.7 -91.7 -3.61
18:21 1029 30.39 858 25.34 -1.3 29.7 66 -6.8 19.8 -91.7 -3.61
18:22 1029 30.39 858 25.34 -1.3 29.6 67 -6.8 19.8 -91.7 -3.61
18:23 1029 30.39 858 25.34 -1.4 29.5 67 -6.8 19.8 -91.7 -3.61
18:24 1029 30.39 858 25.34 -1.5 29.3 67 -6.9 19.5 -91.8 -3.614
18:25 1029 30.39 858 25.34 -1.5 29.3 67 -6.9 19.6 -91.8 -3.614
18:26 1029 30.39 858 25.34 -1.5 29.2 67 -6.8 19.8 -91.8 -3.614
18:27 1029 30.39 858 25.34 -1.6 29.1 68 -6.8 19.8 -91.8 -3.614
18:28 1029 30.39 858 25.34 -1.6 29.1 68 -6.8 19.8 -91.8 -3.614
18:29 1029 30.39 858 25.34 -1.6 29.1 68 -6.7 19.9 -91.8 -3.614
18:30 1029 30.39 858 25.34 -1.6 29.2 68 -6.8 19.8 -91.8 -3.614
18:31 1029 30.39 858 25.34 -1.5 29.2 66 -7.1 19.3 -91.8 -3.614
18:32 1029 30.39 858 25.34 -1.4 29.4 66 -7 19.3 -91.8 -3.614
18:33 1029 30.39 858 25.34 -1.3 29.7 66 -6.8 19.8 -91.8 -3.614
18:34 1029 30.39 859 25.37 -1.2 29.8 67 -6.7 20 -91.8 -3.614
18:35 1029 30.39 859 25.37 -1.2 29.9 65 -7 19.4 -91.8 -3.614
18:36 1029 30.39 859 25.37 -1 30.2 63 -7.2 19 -91.8 -3.614
18:37 1029 30.39 859 25.37 -0.9 30.4 63 -7 19.3 -91.8 -3.614
18:38 1029 30.39 859 25.37 -0.7 30.8 62 -7.1 19.2 -91.8 -3.614
18:39 1029 30.39 859 25.37 -0.5 31.1 63 -6.8 19.8 -91.9 -3.618
18:40 1029 30.39 859 25.37 -0.3 31.4 63 -6.5 20.4 -91.9 -3.618
18:41 1029 30.39 859 25.37 -0.3 31.5 64 -6.2 20.8 -91.9 -3.618
18:42 1029 30.39 859 25.37 -0.3 31.4 64 -6.3 20.7 -91.9 -3.618
18:43 1029 30.39 859 25.37 -0.3 31.4 65 -6.2 20.9 -91.8 -3.614
18:44 1029 30.39 859 25.37 -0.4 31.4 65 -6.1 21 -91.8 -3.614
18:45 1029 30.39 859 25.37 -0.4 31.3 65 -6.2 20.8 -91.8 -3.614
18:46 1029 30.39 859 25.37 -0.5 31.2 65 -6.2 20.9 -91.9 -3.618
18:47 1030 30.42 859 25.37 -0.6 30.9 66 -6.1 21 -91.9 -3.618
18:48 1030 30.42 859 25.37 -0.7 30.7 67 -6.1 21.1 -91.9 -3.618
18:49 1030 30.42 859 25.37 -0.9 30.4 68 -6.1 21 -91.9 -3.618
18:50 1030 30.42 859 25.37 -1 30.2 67 -6.3 20.6 -91.9 -3.618
18:51 1030 30.42 859 25.37 -1.1 30.1 66 -6.6 20.1 -91.9 -3.618
18:52 1030 30.42 859 25.37 -1 30.3 65 -6.8 19.8 -91.9 -3.618
18:53 1029 30.39 859 25.37 -0.9 30.4 64 -6.8 19.8 -91.9 -3.618
18:54 1030 30.42 859 25.37 -0.8 30.6 64 -6.7 20 -91.9 -3.618
18:55 1030 30.42 859 25.37 -0.7 30.7 65 -6.5 20.2 -91.9 -3.618
18:56 1029 30.39 859 25.37 -0.7 30.7 66 -6.3 20.7 -91.9 -3.618
18:57 1029 30.39 859 25.37 -0.7 30.7 66 -6.3 20.6 -91.9 -3.618
18:58 1029 30.39 859 25.37 -0.7 30.7 65 -6.6 20.2 -91.9 -3.618
18:59 1029 30.39 859 25.37 -0.7 30.7 64 -6.6 20.1 -91.9 -3.618
19:00 1029 30.39 859 25.37 -0.6 30.9 63 -6.7 19.9 -91.9 -3.618
19:01 1029 30.39 859 25.37 -0.5 31.1 64 -6.5 20.2 -91.9 -3.618
19:02 1029 30.39 859 25.37 -0.4 31.2 65 -6.1 20.9 -91.9 -3.618
19:03 1029 30.39 859 25.37 -0.4 31.3 65 -6.1 21 -91.9 -3.618
19:04 1029 30.39 859 25.37 -0.4 31.2 65 -6.2 20.9 -91.9 -3.618
19:05 1029 30.39 859 25.37 -0.4 31.3 63 -6.6 20.1 -91.9 -3.618
19:06 1029 30.39 859 25.37 -0.2 31.6 64 -6.2 20.9 -91.9 -3.618
19:07 1030 30.42 859 25.37 -0.2 31.7 65 -6.1 21.1 -91.9 -3.618
19:08 1030 30.42 859 25.37 -0.2 31.7 65 -5.9 21.4 -91.9 -3.618
19:09 1030 30.42 859 25.37 -0.2 31.7 66 -5.8 21.5 -91.9 -3.618
19:10 1030 30.42 859 25.37 -0.2 31.6 67 -5.7 21.8 -91.9 -3.618
19:11 1030 30.42 859 25.37 -0.2 31.7 67 -5.5 22 -91.9 -3.618
19:12 1030 30.42 859 25.37 -0.2 31.6 68 -5.4 22.2 -91.9 -3.618
19:13 1030 30.42 859 25.37 -0.2 31.6 69 -5.3 22.5 -91.9 -3.618
19:14 1029 30.39 859 25.37 -0.3 31.5 69 -5.3 22.4 -91.9 -3.618
19:15 1030 30.42 859 25.37 -0.3 31.5 69 -5.2 22.6 -91.9 -3.618
19:16 1030 30.42 859 25.37 -0.3 31.4 69 -5.3 22.4 -91.8 -3.614
19:17 1030 30.42 859 25.37 -0.3 31.4 69 -5.4 22.3 -91.8 -3.614
19:18 1030 30.42 859 25.37 -0.3 31.4 68 -5.5 22.1 -91.8 -3.614
19:19 1029 30.39 859 25.37 -0.3 31.4 68 -5.6 22 -91.8 -3.614
19:20 1029 30.39 859 25.37 -0.3 31.5 68 -5.5 22.1 -91.8 -3.614
19:21 1029 30.39 859 25.37 -0.3 31.5 68 -5.5 22.2 -91.8 -3.614
19:22 1029 30.39 859 25.37 -0.3 31.5 68 -5.5 22.1 -91.8 -3.614
19:23 1029 30.39 859 25.37 -0.3 31.5 68 -5.4 22.3 -91.8 -3.614
19:24 1029 30.39 859 25.37 -0.3 31.5 69 -5.3 22.4 -91.8 -3.614
19:25 1029 30.39 859 25.37 -0.3 31.4 69 -5.3 22.4 -91.8 -3.614
19:26 1029 30.39 859 25.37 -0.3 31.5 69 -5.2 22.6 -91.8 -3.614
19:27 1029 30.39 859 25.37 -0.3 31.4 69 -5.3 22.5 -91.8 -3.614
19:28 1029 30.39 859 25.37 -0.3 31.4 69 -5.3 22.4 -91.8 -3.614
19:29 1029 30.39 858 25.34 -0.3 31.4 69 -5.3 22.5 -91.8 -3.614
19:30 1029 30.39 859 25.37 -0.3 31.4 70 -5.2 22.6 -91.8 -3.614
19:31 1029 30.39 859 25.37 -0.3 31.4 70 -5.1 22.7 -91.8 -3.614
19:32 1029 30.39 859 25.37 -0.4 31.3 70 -5.1 22.8 -91.8 -3.614
19:33 1029 30.39 859 25.37 -0.4 31.3 71 -5.1 22.9 -91.8 -3.614
19:34 1029 30.39 859 25.37 -0.4 31.2 72 -4.9 23.1 -91.8 -3.614
19:35 1029 30.39 859 25.37 -0.5 31.2 72 -4.9 23.1 -91.8 -3.614
19:36 1029 30.39 859 25.37 -0.5 31.1 72 -4.9 23.2 -91.8 -3.614
19:37 1029 30.39 859 25.37 -0.5 31 73 -4.9 23.3 -91.8 -3.614
19:38 1029 30.39 859 25.37 -0.6 31 73 -4.9 23.2 -91.8 -3.614
19:39 1029 30.39 858 25.34 -0.6 30.9 73 -4.9 23.1 -91.8 -3.614
19:40 1029 30.39 858 25.34 -0.6 31 73 -4.9 23.2 -91.8 -3.614
19:41 1029 30.39 858 25.34 -0.6 30.9 72 -5 23 -91.8 -3.614
19:42 1029 30.39 858 25.34 -0.5 31 72 -5.1 22.9 -91.8 -3.614
19:43 1029 30.39 858 25.34 -0.5 31.2 71 -5.1 22.8 -91.8 -3.614
19:44 1029 30.39 858 25.34 -0.4 31.3 71 -5 22.9 -91.7 -3.61
19:45 1029 30.39 859 25.37 -0.3 31.4 71 -5 23 -91.7 -3.61
19:46 1029 30.39 859 25.37 -0.3 31.4 70 -5.1 22.9 -91.7 -3.61
19:47 1029 30.39 859 25.37 -0.3 31.5 70 -5.2 22.6 -91.7 -3.61
19:48 1029 30.39 859 25.37 -0.1 31.8 68 -5.3 22.4 -91.8 -3.614
19:49 1029 30.39 859 25.37 0.1 32.2 67 -5.3 22.4 -91.8 -3.614
19:50 1029 30.39 859 25.37 0.3 32.5 67 -5.1 22.8 -91.8 -3.614
19:51 1029 30.39 859 25.37 0.3 32.6 68 -5 23 -91.8 -3.614
19:52 1029 30.39 859 25.37 0.3 32.6 68 -4.8 23.3 -91.8 -3.614
19:53 1029 30.39 859 25.37 0.3 32.5 69 -4.7 23.6 -91.8 -3.614
19:54 1029 30.39 859 25.37 0.2 32.4 69 -4.8 23.3 -91.8 -3.614
19:55 1029 30.39 859 25.37 0.2 32.4 70 -4.7 23.6 -91.8 -3.614
19:56 1029 30.39 859 25.37 0.1 32.3 71 -4.5 23.9 -91.8 -3.614
19:57 1029 30.39 859 25.37 0.1 32.1 73 -4.3 24.3 -91.8 -3.614
19:58 1029 30.39 859 25.37 -0 32 71 -4.7 23.6 -91.7 -3.61
19:59 1029 30.39 859 25.37 -0.1 31.9 70 -4.9 23.1 -91.7 -3.61
20:00 1029 30.39 859 25.37 0.1 32.1 70 -4.9 23.2 -91.7 -3.61
20:01 1029 30.39 859 25.37 0.1 32.2 70 -4.8 23.4 -91.7 -3.61
20:02 1029 30.39 859 25.37 0.1 32.1 70 -4.8 23.4 -91.7 -3.61
20:03 1029 30.39 859 25.37 0.1 32.1 70 -4.7 23.5 -91.7 -3.61
20:04 1029 30.39 859 25.37 0.1 32.1 69 -4.8 23.3 -91.7 -3.61
20:05 1029 30.39 859 25.37 0.1 32.2 70 -4.8 23.4 -91.7 -3.61
20:06 1029 30.39 859 25.37 0.1 32.2 69 -4.8 23.3 -91.7 -3.61
20:07 1029 30.39 859 25.37 0.1 32.2 70 -4.8 23.4 -91.7 -3.61
20:08 1029 30.39 859 25.37 0.1 32.2 70 -4.8 23.4 -91.7 -3.61
20:09 1029 30.39 859 25.37 0.1 32.2 70 -4.8 23.4 -91.7 -3.61
20:10 1029 30.39 858 25.34 0.1 32.1 70 -4.8 23.3 -91.7 -3.61
20:11 1029 30.39 858 25.34 0.1 32.1 70 -4.8 23.4 -91.7 -3.61
20:12 1029 30.39 858 25.34 0.1 32.1 70 -4.8 23.3 -91.7 -3.61
20:13 1029 30.39 859 25.37 0.1 32.2 70 -4.7 23.6 -91.7 -3.61
20:14 1029 30.39 859 25.37 0.1 32.1 70 -4.8 23.4 -91.7 -3.61
20:15 1029 30.39 859 25.37 0.1 32.2 70 -4.8 23.4 -91.7 -3.61
20:16 1029 30.39 859 25.37 0.1 32.1 70 -4.8 23.4 -91.7 -3.61
20:17 1029 30.39 859 25.37 0.1 32.1 70 -4.7 23.5 -91.7 -3.61
20:18 1029 30.39 859 25.37 0 32.1 71 -4.7 23.6 -91.7 -3.61
20:19 1029 30.39 859 25.37 -0 32 71 -4.7 23.6 -91.7 -3.61
20:20 1029 30.39 859 25.37 -0.1 31.9 71 -4.8 23.4 -91.7 -3.61
20:21 1029 30.39 859 25.37 -0.1 31.9 70 -4.9 23.2 -91.7 -3.61
20:22 1029 30.39 859 25.37 -0 31.9 69 -5 23.1 -91.7 -3.61
20:23 1029 30.39 859 25.37 -0 32 70 -4.9 23.3 -91.7 -3.61
20:24 1029 30.39 859 25.37 0 32 70 -4.8 23.4 -91.7 -3.61
20:25 1029 30.39 859 25.37 0 32 70 -4.7 23.5 -91.7 -3.61
20:26 1029 30.39 859 25.37 -0 31.9 70 -4.9 23.1 -91.7 -3.61
20:27 1029 30.39 858 25.34 -0 32 70 -4.8 23.3 -91.7 -3.61
20:28 1029 30.39 859 25.37 0 32 70 -4.8 23.4 -91.7 -3.61
20:29 1029 30.39 859 25.37 -0 32 70 -4.8 23.3 -91.7 -3.61
20:30 1029 30.39 859 25.37 -0 32 70 -4.8 23.4 -91.7 -3.61
20:31 1029 30.39 859 25.37 -0 32 70 -4.8 23.3 -91.7 -3.61
20:32 1029 30.39 859 25.37 -0 32 70 -4.8 23.4 -91.7 -3.61
20:33 1029 30.39 859 25.37 -0 32 70 -4.8 23.4 -91.7 -3.61
20:34 1029 30.39 859 25.37 -0.1 31.9 71 -4.7 23.5 -91.7 -3.61
20:35 1029 30.39 858 25.34 -0.1 31.9 71 -4.7 23.5 -91.7 -3.61
20:36 1029 30.39 858 25.34 -0 31.9 71 -4.7 23.6 -91.7 -3.61
20:37 1029 30.39 859 25.37 -0.1 31.9 71 -4.7 23.6 -91.7 -3.61
20:38 1029 30.39 859 25.37 -0.1 31.9 70 -4.8 23.3 -91.7 -3.61
20:39 1029 30.39 859 25.37 0 32 70 -4.8 23.4 -91.7 -3.61
20:40 1029 30.39 859 25.37 0 32.1 70 -4.7 23.5 -91.7 -3.61
20:41 1029 30.39 859 25.37 0.1 32.1 70 -4.7 23.5 -91.7 -3.61
20:42 1029 30.39 859 25.37 0.1 32.2 69 -4.9 23.2 -91.7 -3.61
20:43 1029 30.39 859 25.37 0.3 32.5 68 -4.9 23.2 -91.7 -3.61
20:44 1029 30.39 859 25.37 0.4 32.8 67 -5 22.9 -91.7 -3.61
20:45 1029 30.39 859 25.37 0.6 33.1 67 -4.9 23.2 -91.7 -3.61
20:46 1029 30.39 859 25.37 0.8 33.4 66 -4.8 23.3 -91.7 -3.61
20:47 1029 30.39 859 25.37 0.8 33.5 66 -4.8 23.4 -91.8 -3.614
20:48 1029 30.39 859 25.37 0.9 33.5 65 -4.9 23.2 -91.8 -3.614
20:49 1029 30.39 859 25.37 0.9 33.6 65 -5 23 -91.8 -3.614
20:50 1029 30.39 859 25.37 1 33.8 65 -4.9 23.2 -91.8 -3.614
20:51 1029 30.39 859 25.37 1 33.9 65 -4.9 23.2 -91.8 -3.614
20:52 1029 30.39 859 25.37 1 33.9 65 -4.7 23.5 -91.8 -3.614
20:53 1029 30.39 859 25.37 1 33.9 64 -5 23.1 -91.8 -3.614
20:54 1029 30.39 859 25.37 1.1 34 64 -4.9 23.2 -91.8 -3.614
20:55 1029 30.39 859 25.37 1.2 34.2 63 -5 22.9 -91.8 -3.614
20:56 1029 30.39 859 25.37 1.3 34.3 64 -4.8 23.4 -91.8 -3.614
20:57 1029 30.39 859 25.37 1.3 34.3 64 -4.8 23.4 -91.8 -3.614
20:58 1029 30.39 859 25.37 1.2 34.2 63 -5 22.9 -91.8 -3.614
20:59 1029 30.39 859 25.37 1.3 34.4 62 -5.1 22.9 -91.8 -3.614
21:00 1029 30.39 859 25.37 1.4 34.6 63 -4.8 23.4 -91.8 -3.614
21:01 1029 30.39 859 25.37 1.4 34.6 64 -4.7 23.5 -91.8 -3.614
21:02 1029 30.39 859 25.37 1.4 34.6 64 -4.6 23.7 -91.8 -3.614
21:03 1029 30.39 859 25.37 1.4 34.5 65 -4.5 23.8 -91.8 -3.614
21:04 1029 30.39 859 25.37 1.4 34.5 64 -4.7 23.6 -91.8 -3.614
21:05 1029 30.39 859 25.37 1.4 34.5 64 -4.6 23.6 -91.8 -3.614
21:06 1029 30.39 859 25.37 1.5 34.6 63 -4.7 23.5 -91.8 -3.614
21:07 1029 30.39 859 25.37 1.5 34.7 63 -4.8 23.4 -91.8 -3.614
21:08 1029 30.39 859 25.37 1.5 34.7 64 -4.6 23.7 -91.8 -3.614
21:09 1029 30.39 859 25.37 1.5 34.8 63 -4.7 23.5 -91.8 -3.614
21:10 1029 30.39 859 25.37 1.6 34.8 63 -4.7 23.5 -91.8 -3.614
21:11 1029 30.39 859 25.37 1.6 34.9 61 -5.1 22.9 -91.8 -3.614
21:12 1030 30.42 859 25.37 1.7 35.1 62 -4.7 23.5 -91.8 -3.614
21:13 1030 30.42 859 25.37 1.7 35.1 62 -4.7 23.5 -91.8 -3.614
21:14 1030 30.42 859 25.37 1.7 35.1 62 -4.7 23.6 -91.8 -3.614
21:15 1030 30.42 859 25.37 1.7 35.1 62 -4.7 23.5 -91.8 -3.614
21:16 1030 30.42 859 25.37 1.7 35 63 -4.7 23.6 -91.8 -3.614
21:17 1030 30.42 859 25.37 1.6 35 63 -4.6 23.8 -91.8 -3.614
21:18 1030 30.42 859 25.37 1.6 34.9 63 -4.7 23.5 -91.8 -3.614
21:19 1030 30.42 859 25.37 1.5 34.7 64 -4.7 23.6 -91.8 -3.614
21:20 1030 30.42 859 25.37 1.3 34.3 64 -4.7 23.5 -91.8 -3.614
21:21 1030 30.42 859 25.37 1.1 34 65 -4.7 23.5 -91.8 -3.614
21:22 1030 30.42 859 25.37 1 33.8 66 -4.6 23.6 -91.8 -3.614
21:23 1030 30.42 859 25.37 0.9 33.6 65 -5 23 -91.8 -3.614
21:24 1030 30.42 859 25.37 0.9 33.7 64 -5.1 22.8 -91.8 -3.614
21:25 1030 30.42 859 25.37 1 33.9 62 -5.4 22.3 -91.8 -3.614
21:26 1029 30.39 859 25.37 1.3 34.3 62 -5.2 22.6 -91.8 -3.614
21:27 1029 30.39 859 25.37 1.3 34.4 62 -5.1 22.9 -91.8 -3.614
21:28 1029 30.39 859 25.37 1.4 34.6 62 -5 23 -91.8 -3.614
21:29 1029 30.39 859 25.37 1.5 34.6 63 -4.8 23.4 -91.8 -3.614
21:30 1029 30.39 859 25.37 1.4 34.5 64 -4.7 23.5 -91.8 -3.614
21:31 1029 30.39 859 25.37 1.2 34.2 65 -4.6 23.8 -91.8 -3.614
21:32 1029 30.39 859 25.37 1.2 34.1 66 -4.6 23.8 -91.8 -3.614
21:33 1029 30.39 859 25.37 1.1 33.9 66 -4.6 23.7 -91.8 -3.614
21:34 1029 30.39 859 25.37 0.9 33.6 67 -4.6 23.8 -91.8 -3.614
21:35 1029 30.39 859 25.37 0.8 33.4 67 -4.6 23.7 -91.8 -3.614
21:36 1029 30.39 859 25.37 0.7 33.2 67 -4.8 23.4 -91.8 -3.614
21:37 1029 30.39 859 25.37 0.6 33.2 67 -4.8 23.4 -91.8 -3.614
21:38 1030 30.42 859 25.37 0.6 33.1 67 -4.8 23.4 -91.8 -3.614
21:39 1030 30.42 859 25.37 0.6 33.1 66 -5 23.1 -91.8 -3.614
21:40 1029 30.39 859 25.37 0.7 33.2 65 -5.1 22.8 -91.8 -3.614
21:41 1029 30.39 859 25.37 0.8 33.4 64 -5.2 22.7 -91.8 -3.614
21:42 1029 30.39 859 25.37 0.8 33.5 65 -5.1 22.8 -91.8 -3.614
21:43 1029 30.39 859 25.37 0.8 33.5 65 -5 22.9 -91.7 -3.61
21:44 1029 30.39 859 25.37 0.8 33.5 65 -5 23 -91.7 -3.61
21:45 1029 30.39 859 25.37 0.8 33.4 65 -5 23 -91.7 -3.61
21:46 1029 30.39 859 25.37 0.8 33.4 65 -5.1 22.8 -91.7 -3.61
21:47 1029 30.39 859 25.37 0.8 33.4 66 -4.9 23.3 -91.7 -3.61
21:48 1030 30.42 859 25.37 0.7 33.3 68 -4.6 23.8 -91.7 -3.61
21:49 1030 30.42 859 25.37 0.7 33.2 67 -4.7 23.6 -91.7 -3.61
21:50 1030 30.42 859 25.37 0.5 33 68 -4.8 23.4 -91.7 -3.61
21:51 1030 30.42 859 25.37 0.5 32.9 67 -4.8 23.3 -91.7 -3.61
21:52 1030 30.42 859 25.37 0.5 32.9 67 -4.9 23.2 -91.7 -3.61
21:53 1030 30.42 859 25.37 0.5 33 67 -4.9 23.1 -91.7 -3.61
21:54 1030 30.42 859 25.37 0.5 32.9 68 -4.8 23.4 -91.7 -3.61
21:55 1030 30.42 859 25.37 0.5 32.9 68 -4.8 23.4 -91.7 -3.61
21:56 1030 30.42 859 25.37 0.5 32.8 68 -4.8 23.4 -91.7 -3.61
21:57 1030 30.42 859 25.37 0.4 32.7 69 -4.7 23.5 -91.7 -3.61
21:58 1030 30.42 859 25.37 0.4 32.7 69 -4.7 23.6 -91.7 -3.61
21:59 1030 30.42 859 25.37 0.4 32.6 69 -4.7 23.6 -91.7 -3.61
22:00 1030 30.42 859 25.37 0.3 32.6 69 -4.6 23.7 -91.7 -3.61
22:01 1030 30.42 859 25.37 0.3 32.5 70 -4.5 23.9 -91.7 -3.61
22:02 1030 30.42 859 25.37 0.2 32.4 70 -4.7 23.6 -91.7 -3.61
22:03 1030 30.42 859 25.37 0.2 32.4 70 -4.7 23.6 -91.7 -3.61
22:04 1030 30.42 859 25.37 0.2 32.4 70 -4.6 23.8 -91.7 -3.61
22:05 1030 30.42 859 25.37 0.2 32.4 71 -4.5 23.9 -91.7 -3.61
22:06 1030 30.42 859 25.37 0.2 32.3 71 -4.5 23.9 -91.7 -3.61
22:07 1030 30.42 859 25.37 0.2 32.3 72 -4.4 24.1 -91.7 -3.61
22:08 1030 30.42 859 25.37 0.1 32.2 72 -4.4 24.1 -91.7 -3.61
22:09 1030 30.42 859 25.37 0.1 32.1 71 -4.5 23.8 -91.7 -3.61
22:10 1030 30.42 859 25.37 0 32.1 70 -4.7 23.5 -91.7 -3.61
22:11 1030 30.42 859 25.37 0.1 32.2 71 -4.6 23.7 -91.7 -3.61
22:12 1030 30.42 859 25.37 0.1 32.2 71 -4.6 23.8 -91.7 -3.61
22:13 1030 30.42 859 25.37 0.2 32.3 70 -4.7 23.5 -91.7 -3.61
22:14 1030 30.42 859 25.37 0.2 32.3 70 -4.7 23.6 -91.7 -3.61
22:15 1030 30.42 859 25.37 0.3 32.5 70 -4.6 23.7 -91.7 -3.61
22:16 1030 30.42 859 25.37 0.3 32.6 70 -4.6 23.7 -91.7 -3.61
22:17 1030 30.42 859 25.37 0.3 32.6 70 -4.6 23.7 -91.7 -3.61
22:18 1030 30.42 859 25.37 0.3 32.6 69 -4.7 23.6 -91.7 -3.61
22:19 1030 30.42 859 25.37 0.4 32.7 69 -4.7 23.5 -91.7 -3.61
22:20 1030 30.42 859 25.37 0.4 32.8 69 -4.7 23.6 -91.7 -3.61
22:21 1030 30.42 859 25.37 0.4 32.8 69 -4.6 23.7 -91.7 -3.61
22:22 1030 30.42 859 25.37 0.4 32.8 69 -4.6 23.8 -91.7 -3.61
22:23 1030 30.42 859 25.37 0.5 32.9 70 -4.4 24.1 -91.7 -3.61
22:24 1030 30.42 859 25.37 0.4 32.7 70 -4.5 23.9 -91.7 -3.61
22:25 1030 30.42 859 25.37 0.4 32.7 70 -4.4 24 -91.7 -3.61
22:26 1030 30.42 859 25.37 0.3 32.6 71 -4.4 24.1 -91.6 -3.606
22:27 1030 30.42 859 25.37 0.3 32.5 69 -4.7 23.6 -91.7 -3.61
22:28 1030 30.42 859 25.37 0.3 32.5 69 -4.7 23.5 -91.7 -3.61
22:29 1030 30.42 859 25.37 0.3 32.6 70 -4.6 23.7 -91.7 -3.61
22:30 1030 30.42 859 25.37 0.3 32.6 69 -4.7 23.5 -91.7 -3.61
22:31 1030 30.42 859 25.37 0.4 32.7 67 -5 23 -91.7 -3.61
22:32 1030 30.42 859 25.37 0.6 33 65 -5.3 22.5 -91.7 -3.61
22:33 1030 30.42 859 25.37 0.8 33.4 61 -5.9 21.5 -91.7 -3.61
22:34 1030 30.42 859 25.37 1.1 34 61 -5.6 21.9 -91.7 -3.61
22:35 1030 30.42 859 25.37 1.3 34.3 62 -5.2 22.7 -91.7 -3.61
22:36 1030 30.42 859 25.37 1.3 34.3 63 -4.9 23.1 -91.7 -3.61
22:37 1030 30.42 859 25.37 1.2 34.2 62 -5.2 22.6 -91.7 -3.61
22:38 1030 30.42 859 25.37 1.2 34.1 62 -5.4 22.3 -91.7 -3.61
22:39 1030 30.42 859 25.37 1.1 34.1 62 -5.3 22.5 -91.7 -3.61
22:40 1030 30.42 859 25.37 1.2 34.1 62 -5.3 22.4 -91.7 -3.61
22:41 1030 30.42 859 25.37 1.1 34 64 -5.1 22.9 -91.7 -3.61
22:42 1030 30.42 859 25.37 1 33.8 65 -4.9 23.2 -91.7 -3.61
22:43 1030 30.42 859 25.37 0.9 33.6 65 -5 23 -91.7 -3.61
22:44 1030 30.42 859 25.37 0.8 33.5 65 -5.1 22.9 -91.7 -3.61
22:45 1030 30.42 859 25.37 0.7 33.3 66 -4.9 23.2 -91.7 -3.61
22:46 1030 30.42 859 25.37 0.6 33.1 66 -5 23 -91.7 -3.61
22:47 1030 30.42 859 25.37 0.5 32.9 67 -5 23.1 -91.7 -3.61
22:48 1030 30.42 859 25.37 0.4 32.8 67 -5 23 -91.7 -3.61
22:49 1030 30.42 859 25.37 0.4 32.7 67 -5 22.9 -91.7 -3.61
22:50 1030 30.42 859 25.37 0.3 32.5 67 -5.1 22.8 -91.7 -3.61
22:51 1030 30.42 859 25.37 0.3 32.5 66 -5.2 22.6 -91.7 -3.61
22:52 1030 30.42 859 25.37 0.3 32.5 67 -5.1 22.8 -91.7 -3.61
22:53 1030 30.42 859 25.37 0.2 32.4 67 -5.3 22.5 -91.7 -3.61
22:54 1030 30.42 859 25.37 0.2 32.4 67 -5.2 22.7 -91.7 -3.61
22:55 1030 30.42 859 25.37 0.2 32.3 68 -5.1 22.9 -91.7 -3.61
22:56 1030 30.42 859 25.37 0.2 32.3 67 -5.2 22.7 -91.7 -3.61
22:57 1030 30.42 859 25.37 0.1 32.2 67 -5.3 22.4 -91.7 -3.61
22:58 1030 30.42 859 25.37 0.2 32.3 66 -5.4 22.3 -91.7 -3.61
22:59 1030 30.42 859 25.37 0.2 32.4 67 -5.1 22.8 -91.7 -3.61
23:00 1030 30.42 859 25.37 0.2 32.3 68 -4.9 23.1 -91.7 -3.61
23:01 1030 30.42 859 25.37 0.1 32.3 69 -4.8 23.3 -91.7 -3.61
23:02 1030 30.42 859 25.37 0 32.1 68 -5.1 22.8 -91.7 -3.61
23:03 1030 30.42 859 25.37 0 32 69 -5 23.1 -91.7 -3.61
23:04 1030 30.42 859 25.37 0 32 69 -4.9 23.1 -91.7 -3.61
23:05 1030 30.42 859 25.37 0 32 69 -4.9 23.1 -91.7 -3.61
23:06 1030 30.42 859 25.37 -0 32 69 -5.1 22.8 -91.7 -3.61
23:07 1030 30.42 859 25.37 0.1 32.1 67 -5.3 22.5 -91.7 -3.61
23:08 1030 30.42 859 25.37 0.1 32.2 67 -5.3 22.4 -91.7 -3.61
23:09 1030 30.42 859 25.37 0.2 32.3 67 -5.2 22.6 -91.7 -3.61
23:10 1030 30.42 859 25.37 0.2 32.3 66 -5.4 22.2 -91.7 -3.61
23:11 1029 30.39 859 25.37 0.2 32.4 66 -5.5 22.2 -91.7 -3.61
23:12 1030 30.42 859 25.37 0.2 32.3 66 -5.5 22.1 -91.7 -3.61
23:13 1029 30.39 859 25.37 0.2 32.4 65 -5.5 22.1 -91.7 -3.61
23:14 1030 30.42 859 25.37 0.2 32.4 65 -5.5 22.1 -91.7 -3.61
23:15 1030 30.42 859 25.37 0.2 32.3 66 -5.5 22.2 -91.7 -3.61
23:16 1030 30.42 859 25.37 0.1 32.2 66 -5.5 22.2 -91.7 -3.61
23:17 1030 30.42 859 25.37 0.1 32.2 66 -5.5 22.2 -91.7 -3.61
23:18 1030 30.42 859 25.37 0 32 67 -5.4 22.2 -91.7 -3.61
23:19 1030 30.42 859 25.37 -0.1 31.8 67 -5.6 22 -91.7 -3.61
23:20 1030 30.42 859 25.37 -0.2 31.6 66 -5.8 21.6 -91.7 -3.61
23:21 1029 30.39 859 25.37 -0.2 31.7 66 -5.7 21.7 -91.7 -3.61
23:22 1029 30.39 859 25.37 -0.2 31.6 66 -5.8 21.5 -91.7 -3.61
23:23 1029 30.39 859 25.37 -0.3 31.5 66 -5.8 21.6 -91.7 -3.61
23:24 1029 30.39 859 25.37 -0.3 31.4 67 -5.7 21.7 -91.8 -3.614
23:25 1029 30.39 859 25.37 -0.4 31.3 67 -5.9 21.4 -91.8 -3.614
23:26 1029 30.39 859 25.37 -0.5 31.2 67 -5.9 21.4 -91.8 -3.614
23:27 1029 30.39 859 25.37 -0.5 31 67 -5.9 21.4 -91.8 -3.614
23:28 1029 30.39 859 25.37 -0.6 30.8 68 -5.9 21.4 -91.8 -3.614
23:29 1029 30.39 859 25.37 -0.8 30.6 68 -5.9 21.3 -91.8 -3.614
23:30 1029 30.39 859 25.37 -0.9 30.5 68 -6 21.2 -91.8 -3.614
23:31 1029 30.39 859 25.37 -1 30.3 69 -6 21.1 -91.8 -3.614
23:32 1029 30.39 859 25.37 -1 30.2 69 -6 21.2 -91.8 -3.614
23:33 1029 30.39 859 25.37 -1.1 30 69 -6.1 21.1 -91.8 -3.614
23:34 1029 30.39 859 25.37 -1.2 29.9 69 -6.1 21.1 -91.7 -3.61
23:35 1029 30.39 859 25.37 -1.3 29.6 70 -6.2 20.9 -91.7 -3.61
23:36 1029 30.39 859 25.37 -1.4 29.5 70 -6.2 20.9 -91.7 -3.61
23:37 1029 30.39 859 25.37 -1.5 29.4 70 -6.2 20.8 -91.7 -3.61
23:38 1029 30.39 859 25.37 -1.5 29.3 70 -6.3 20.7 -91.7 -3.61
23:39 1029 30.39 859 25.37 -1.5 29.3 70 -6.3 20.7 -91.7 -3.61
23:40 1029 30.39 859 25.37 -1.5 29.4 70 -6.2 20.8 -91.7 -3.61
23:41 1029 30.39 859 25.37 -1.5 29.3 70 -6.3 20.6 -91.7 -3.61
23:42 1029 30.39 859 25.37 -1.5 29.3 70 -6.3 20.7 -91.7 -3.61
23:43 1029 30.39 859 25.37 -1.6 29.2 70 -6.3 20.7 -91.7 -3.61
23:44 1029 30.39 859 25.37 -1.6 29.2 71 -6.2 20.8 -91.8 -3.614
23:45 1030 30.42 859 25.37 -1.6 29.1 71 -6.2 20.8 -91.8 -3.614
23:46 1030 30.42 859 25.37 -1.7 28.9 71 -6.3 20.7 -91.8 -3.614
23:47 1029 30.39 859 25.37 -1.8 28.8 72 -6.2 20.8 -91.8 -3.614
23:48 1030 30.42 859 25.37 -1.8 28.8 71 -6.3 20.7 -91.8 -3.614
23:49 1029 30.39 859 25.37 -1.7 28.9 71 -6.3 20.7 -91.8 -3.614
23:50 1029 30.39 859 25.37 -1.7 29 71 -6.3 20.7 -91.8 -3.614
23:51 1029 30.39 859 25.37 -1.7 29 71 -6.3 20.6 -91.8 -3.614
23:52 1029 30.39 859 25.37 -1.6 29.2 70 -6.4 20.5 -91.8 -3.614
23:53 1029 30.39 859 25.37 -1.5 29.3 69 -6.4 20.5 -91.8 -3.614
23:54 1029 30.39 859 25.37 -1.3 29.6 69 -6.3 20.6 -91.8 -3.614
23:55 1029 30.39 859 25.37 -1.3 29.7 69 -6.3 20.6 -91.8 -3.614
23:56 1029 30.39 859 25.37 -1.2 29.9 68 -6.2 20.8 -91.8 -3.614
23:57 1029 30.39 859 25.37 -1.1 30 68 -6.3 20.7 -91.8 -3.614
23:58 1029 30.39 859 25.37 -1.1 30.1 68 -6.3 20.6 -91.8 -3.614
23:59 1029 30.39 859 25.37 -1 30.3 68 -6.2 20.8 -91.8 -3.614
24:00 1029 30.39 859 25.37 -0.9 30.4 67 -6.2 20.8 -91.8 -3.614